Time,TemperatureF,DewpointF,PressureIn,WindDirection,WindDirectionDegrees,WindSpeedMPH,WindSpeedGustMPH,Humidity,HourlyPrecipIn,Conditions,Clouds,dailyrainin,SoftwareType,DateUTC
2013-03-13 00:00:00,41.7,17.3,30.00,NNW,333,7.2,12.7,37,0.00,CLR,,0.81,WeatherDisplay:10.37,2013-03-13 04:00:00,
2013-03-13 00:05:00,41.6,16.6,30.00,NNW,336,8.3,11.5,36,0.00,RA,,0.00,WeatherDisplay:10.37,2013-03-13 04:05:00,
2013-03-13 00:10:00,42.1,17.0,30.00,WNW,289,5.9,9.9,36,0.00,RA,,0.00,WeatherDisplay:10.37,2013-03-13 04:10:00,
2013-03-13 00:15:00,41.7,17.3,30.00,NW,326,5.6,8.1,37,0.00,CLR,,0.00,WeatherDisplay:10.37,2013-03-13 04:15:00,
2013-03-13 00:17:00,41.7,17.3,30.00,WNW,301,5.7,9.9,37,0.00,CLR,,0.00,WeatherDisplay:10.37,2013-03-13 04:17:00,
2013-03-13 00:20:00,41.6,17.2,30.00,NW,305,5.5,8.1,37,0.00,CLR,,0.00,WeatherDisplay:10.37,2013-03-13 04:20:00,
2013-03-13 00:21:00,41.4,17.0,30.00,WNW,292,5.3,8.1,37,0.00,CLR,,0.00,WeatherDisplay:10.37,2013-03-13 04:21:00,
2013-03-13 00:22:00,41.3,17.6,30.00,NNW,328,1.8,8.1,38,0.00,CLR,,0.00,WeatherDisplay:10.37,2013-03-13 04:22:00,
2013-03-13 00:25:00,41.3,17.6,30.00,NNW,336,7.5,10.4,38,0.00,CLR,,0.00,WeatherDisplay:10.37,2013-03-13 04:25:00,
2013-03-13 00:26:00,41.4,17.7,30.00,West,278,5.4,10.4,38,0.00,CLR,,0.00,WeatherDisplay:10.37,2013-03-13 04:26:00,
2013-03-13 00:27:00,40.9,17.2,30.00,WNW,301,6.5,10.6,38,0.00,CLR,,0.00,WeatherDisplay:10.37,2013-03-13 04:27:00,
2013-03-13 00:30:00,41.3,17.6,30.00,WNW,302,3.2,7.2,38,0.00,CLR,,0.00,WeatherDisplay:10.37,2013-03-13 04:30:00,
2013-03-13 00:31:00,41.3,17.6,30.00,NNW,335,6.1,9.2,38,0.00,CLR,,0.00,WeatherDisplay:10.37,2013-03-13 04:31:00,
2013-03-13 00:32:00,41.2,17.5,30.00,NNW,333,6.3,8.1,38,0.00,CLR,,0.00,WeatherDisplay:10.37,2013-03-13 04:32:00,
2013-03-13 00:35:00,41.3,16.9,30.00,NNW,335,6.7,9.2,37,0.00,CLR,,0.00,WeatherDisplay:10.37,2013-03-13 04:35:00,
2013-03-13 00:36:00,41.4,17.0,30.00,NNW,332,6.8,8.1,37,0.00,CLR,,0.00,WeatherDisplay:10.37,2013-03-13 04:36:00,
2013-03-13 00:37:00,41.4,17.7,30.00,NW,326,6.2,8.1,38,0.00,CLR,,0.00,WeatherDisplay:10.37,2013-03-13 04:37:00,
2013-03-13 00:40:00,41.3,17.6,30.00,NW,313,5.0,9.2,38,0.00,CLR,,0.00,WeatherDisplay:10.37,2013-03-13 04:40:00,
2013-03-13 00:42:00,41.1,17.4,30.00,NW,306,4.9,6.9,38,0.00,CLR,,0.00,WeatherDisplay:10.37,2013-03-13 04:42:00,
2013-03-13 00:45:00,40.8,17.7,30.00,NW,308,2.6,4.6,39,0.00,CLR,,0.00,WeatherDisplay:10.37,2013-03-13 04:45:00,
2013-03-13 00:47:00,40.9,17.2,30.00,NW,325,5.4,7.4,38,0.00,CLR,,0.00,WeatherDisplay:10.37,2013-03-13 04:47:00,
2013-03-13 00:50:00,41.1,17.4,30.00,NNW,329,4.9,6.9,38,0.00,CLR,,0.00,WeatherDisplay:10.37,2013-03-13 04:50:00,
2013-03-13 00:52:00,41.1,17.4,30.00,North,356,3.9,6.9,38,0.00,CLR,,0.00,WeatherDisplay:10.37,2013-03-13 04:52:00,
2013-03-13 00:53:00,41.0,17.9,30.00,NW,325,3.4,4.6,39,0.00,CLR,,0.00,WeatherDisplay:10.37,2013-03-13 04:53:00,
2013-03-13 00:56:00,41.1,17.4,30.00,NW,318,4.8,6.9,38,0.00,CLR,,0.00,WeatherDisplay:10.37,2013-03-13 04:56:00,
2013-03-13 00:57:00,40.9,17.8,30.00,NNW,329,5.3,6.9,39,0.00,CLR,,0.00,WeatherDisplay:10.37,2013-03-13 04:57:00,
2013-03-13 00:58:00,41.0,17.9,30.00,NNW,332,3.2,6.9,39,0.00,CLR,,0.00,WeatherDisplay:10.37,2013-03-13 04:58:00,
2013-03-13 01:02:00,41.0,17.9,30.00,NW,322,5.7,8.1,39,0.00,CLR,,0.00,WeatherDisplay:10.37,2013-03-13 05:02:00,
2013-03-13 01:03:00,40.9,17.8,30.00,NNW,337,6.5,8.1,39,0.00,CLR,,0.00,WeatherDisplay:10.37,2013-03-13 05:03:00,
2013-03-13 01:04:00,40.8,17.7,30.00,NNW,344,5.6,8.1,39,0.00,CLR,,0.00,WeatherDisplay:10.37,2013-03-13 05:04:00,
2013-03-13 01:07:00,40.9,17.2,30.00,NW,315,5.8,6.9,38,0.00,CLR,,0.00,WeatherDisplay:10.37,2013-03-13 05:07:00,
2013-03-13 01:08:00,40.7,17.0,30.00,NNW,337,5.6,6.9,38,0.00,CLR,,0.00,WeatherDisplay:10.37,2013-03-13 05:08:00,
2013-03-13 01:09:00,41.1,17.4,30.00,North,349,3.2,5.8,38,0.00,CLR,,0.00,WeatherDisplay:10.37,2013-03-13 05:09:00,
2013-03-13 01:12:00,40.9,17.2,30.00,NNW,343,4.4,8.1,38,0.00,CLR,,0.00,WeatherDisplay:10.37,2013-03-13 05:12:00,
2013-03-13 01:13:00,41.1,18.0,30.00,NNW,340,3.6,4.6,39,0.00,CLR,,0.00,WeatherDisplay:10.37,2013-03-13 05:13:00,
2013-03-13 01:14:00,40.9,17.8,30.00,NW,305,1.7,4.6,39,0.00,CLR,,0.00,WeatherDisplay:10.37,2013-03-13 05:14:00,
2013-03-13 01:17:00,40.7,18.2,30.00,NNW,330,4.3,4.6,40,0.00,CLR,,0.00,WeatherDisplay:10.37,2013-03-13 05:17:00,
2013-03-13 01:18:00,40.6,18.1,30.00,NNW,335,3.8,5.8,40,0.00,CLR,,0.00,WeatherDisplay:10.37,2013-03-13 05:18:00,
2013-03-13 01:19:00,40.3,17.9,30.00,NNW,335,0.0,4.6,40,0.00,CLR,,0.00,WeatherDisplay:10.37,2013-03-13 05:19:00,
2013-03-13 01:22:00,40.6,18.1,30.00,NNW,339,2.5,6.9,40,0.00,CLR,,0.00,WeatherDisplay:10.37,2013-03-13 05:22:00,
2013-03-13 01:23:00,40.7,18.2,30.00,North,8,1.5,4.6,40,0.00,CLR,,0.00,WeatherDisplay:10.37,2013-03-13 05:23:00,
2013-03-13 01:25:00,40.5,18.0,30.00,North,353,4.9,6.9,40,0.00,CLR,,0.00,WeatherDisplay:10.37,2013-03-13 05:25:00,
2013-03-13 01:27:00,40.3,18.4,30.00,NNW,342,2.9,5.2,41,0.00,CLR,,0.00,WeatherDisplay:10.37,2013-03-13 05:27:00,
2013-03-13 01:29:00,39.8,18.5,30.00,NNW,344,3.8,5.8,42,0.00,CLR,,0.00,WeatherDisplay:10.37,2013-03-13 05:29:00,
2013-03-13 01:30:00,40.2,18.9,30.01,NNW,337,4.2,5.8,42,0.00,CLR,,0.00,WeatherDisplay:10.37,2013-03-13 05:30:00,
2013-03-13 01:32:00,40.0,18.2,30.01,NNW,347,2.1,7.5,41,0.00,CLR,,0.00,WeatherDisplay:10.37,2013-03-13 05:32:00,
2013-03-13 01:34:00,40.2,17.8,30.00,NW,326,6.7,8.1,40,0.00,CLR,,0.00,WeatherDisplay:10.37,2013-03-13 05:34:00,
2013-03-13 01:35:00,40.2,17.2,30.00,NNW,337,5.1,6.9,39,0.00,CLR,,0.00,WeatherDisplay:10.37,2013-03-13 05:35:00,
2013-03-13 01:38:00,40.4,18.0,30.00,NNW,339,0.0,4.6,40,0.00,CLR,,0.00,WeatherDisplay:10.37,2013-03-13 05:38:00,
2013-03-13 01:39:00,40.5,18.6,30.00,North,7,0.9,5.6,41,0.00,CLR,,0.00,WeatherDisplay:10.37,2013-03-13 05:39:00,
2013-03-13 01:40:00,40.3,18.4,30.00,NW,325,3.9,6.1,41,0.00,CLR,,0.00,WeatherDisplay:10.37,2013-03-13 05:40:00,
2013-03-13 01:43:00,40.2,18.3,30.00,NW,318,1.7,5.8,41,0.00,CLR,,0.00,WeatherDisplay:10.37,2013-03-13 05:43:00,
2013-03-13 01:44:00,40.2,18.3,30.00,NNW,329,4.0,5.8,41,0.00,CLR,,0.00,WeatherDisplay:10.37,2013-03-13 05:44:00,
2013-03-13 01:45:00,40.1,18.3,30.00,NNW,339,2.6,6.2,41,0.00,CLR,,0.00,WeatherDisplay:10.37,2013-03-13 05:45:00,
2013-03-13 01:48:00,40.1,17.7,30.00,NNW,329,3.0,6.9,40,0.00,CLR,,0.00,WeatherDisplay:10.37,2013-03-13 05:48:00,
2013-03-13 01:49:00,40.3,17.9,30.00,NNW,332,1.1,3.5,40,0.00,CLR,,0.00,WeatherDisplay:10.37,2013-03-13 05:49:00,
2013-03-13 01:50:00,40.2,17.8,30.00,NW,319,0.7,0.0,40,0.00,CLR,,0.00,WeatherDisplay:10.37,2013-03-13 05:50:00,
2013-03-13 01:53:00,40.4,18.5,30.00,NNW,343,0.0,0.0,41,0.00,CLR,,0.00,WeatherDisplay:10.37,2013-03-13 05:53:00,
2013-03-13 01:54:00,40.2,18.3,30.00,NNW,343,0.0,0.0,41,0.00,CLR,,0.00,WeatherDisplay:10.37,2013-03-13 05:54:00,
2013-03-13 01:55:00,40.3,18.4,30.00,NNW,343,0.0,0.0,41,0.00,CLR,,0.00,WeatherDisplay:10.37,2013-03-13 05:55:00,
2013-03-13 01:58:00,40.4,18.0,30.00,NNW,343,0.0,0.0,40,0.00,CLR,,0.00,WeatherDisplay:10.37,2013-03-13 05:58:00,
2013-03-13 01:59:00,40.4,18.5,30.00,WNW,298,0.9,3.5,41,0.00,CLR,,0.00,WeatherDisplay:10.37,2013-03-13 05:59:00,
2013-03-13 02:01:00,40.3,18.4,30.00,WNW,298,0.0,0.0,41,0.00,CLR,,0.00,WeatherDisplay:10.37,2013-03-13 06:01:00,
2013-03-13 02:03:00,40.3,17.9,29.99,NNW,337,2.5,4.6,40,0.00,CLR,,0.00,WeatherDisplay:10.37,2013-03-13 06:03:00,
2013-03-13 02:04:00,40.3,17.9,29.99,NNW,337,0.1,5.8,40,0.00,CLR,,0.00,WeatherDisplay:10.37,2013-03-13 06:04:00,
2013-03-13 02:05:00,40.3,17.9,29.99,NNW,337,0.0,5.8,40,0.00,CLR,,0.00,WeatherDisplay:10.37,2013-03-13 06:05:00,
2013-03-13 02:06:00,40.4,18.0,29.99,NNW,346,2.3,4.4,40,0.00,CLR,,0.00,WeatherDisplay:10.37,2013-03-13 06:06:00,
2013-03-13 02:08:00,40.1,17.7,30.00,North,7,0.0,3.5,40,0.00,CLR,,0.00,WeatherDisplay:10.37,2013-03-13 06:08:00,
2013-03-13 02:09:00,40.2,18.3,30.00,North,7,0.0,0.0,41,0.00,CLR,,0.00,WeatherDisplay:10.37,2013-03-13 06:09:00,
2013-03-13 02:10:00,40.3,18.4,30.00,North,7,0.0,0.0,41,0.00,CLR,,0.00,WeatherDisplay:10.37,2013-03-13 06:10:00,
2013-03-13 02:12:00,40.3,18.4,30.00,North,7,0.0,0.0,41,0.00,CLR,,0.00,WeatherDisplay:10.37,2013-03-13 06:12:00,
2013-03-13 02:13:00,40.3,18.4,30.00,North,7,0.0,0.0,41,0.00,CLR,,0.00,WeatherDisplay:10.37,2013-03-13 06:13:00,
2013-03-13 02:14:00,40.2,18.3,30.00,North,7,0.0,0.0,41,0.00,CLR,,0.00,WeatherDisplay:10.37,2013-03-13 06:14:00,
2013-03-13 02:15:00,40.1,18.3,30.00,North,7,0.0,0.0,41,0.00,CLR,,0.00,WeatherDisplay:10.37,2013-03-13 06:15:00,
2013-03-13 02:17:00,40.2,18.9,30.00,North,7,0.0,0.0,42,0.00,CLR,,0.00,WeatherDisplay:10.37,2013-03-13 06:17:00,
2013-03-13 02:19:00,40.2,18.9,30.00,North,7,0.0,0.0,42,0.00,CLR,,0.00,WeatherDisplay:10.37,2013-03-13 06:19:00,
2013-03-13 02:21:00,39.6,18.4,30.00,North,7,0.0,0.0,42,0.00,CLR,,0.00,WeatherDisplay:10.37,2013-03-13 06:21:00,
2013-03-13 02:23:00,39.7,18.5,29.99,North,7,0.0,0.0,42,0.00,CLR,,0.00,WeatherDisplay:10.37,2013-03-13 06:23:00,
2013-03-13 02:24:00,39.9,18.6,29.99,North,7,0.0,0.0,42,0.00,CLR,,0.00,WeatherDisplay:10.37,2013-03-13 06:24:00,
2013-03-13 02:26:00,39.9,18.6,29.99,North,7,0.0,0.0,42,0.00,CLR,,0.00,WeatherDisplay:10.37,2013-03-13 06:26:00,
2013-03-13 02:29:00,39.6,18.4,29.99,North,356,1.6,0.0,42,0.00,CLR,,0.00,WeatherDisplay:10.37,2013-03-13 06:29:00,
2013-03-13 02:32:00,40.0,18.7,29.99,North,356,0.0,0.0,42,0.00,CLR,,0.00,WeatherDisplay:10.37,2013-03-13 06:32:00,
2013-03-13 02:34:00,39.9,19.2,29.99,North,356,0.0,0.0,43,0.00,CLR,,0.00,WeatherDisplay:10.37,2013-03-13 06:34:00,
2013-03-13 02:37:00,39.8,19.6,29.99,North,356,0.0,0.0,44,0.00,CLR,,0.00,WeatherDisplay:10.37,2013-03-13 06:37:00,
2013-03-13 02:39:00,40.1,21.0,29.99,North,356,0.0,0.0,46,0.00,CLR,,0.00,WeatherDisplay:10.37,2013-03-13 06:39:00,
2013-03-13 02:42:00,40.0,21.4,29.99,SSE,147,0.0,0.0,47,0.00,CLR,,0.00,WeatherDisplay:10.37,2013-03-13 06:42:00,
2013-03-13 02:44:00,40.0,20.9,29.98,SSE,147,0.0,0.0,46,0.00,CLR,,0.00,WeatherDisplay:10.37,2013-03-13 06:44:00,
2013-03-13 02:45:00,39.9,20.8,29.98,SSE,147,0.0,0.0,46,0.00,CLR,,0.00,WeatherDisplay:10.37,2013-03-13 06:45:00,
2013-03-13 02:47:00,39.6,20.5,29.98,SSE,147,0.0,0.0,46,0.00,CLR,,0.00,WeatherDisplay:10.37,2013-03-13 06:47:00,
2013-03-13 02:49:00,39.5,20.9,29.98,SSE,147,0.0,0.0,47,0.00,CLR,,0.00,WeatherDisplay:10.37,2013-03-13 06:49:00,
2013-03-13 02:50:00,39.0,20.5,29.98,SSE,147,0.0,0.0,47,0.00,CLR,,0.00,WeatherDisplay:10.37,2013-03-13 06:50:00,
2013-03-13 02:52:00,38.8,20.8,29.98,SSE,147,0.0,0.0,48,0.00,CLR,,0.00,WeatherDisplay:10.37,2013-03-13 06:52:00,
2013-03-13 02:54:00,39.0,20.9,29.98,SSE,147,0.0,0.0,48,0.00,CLR,,0.00,WeatherDisplay:10.37,2013-03-13 06:54:00,
2013-03-13 02:55:00,38.9,20.4,29.98,SSE,147,0.0,0.0,47,0.00,CLR,,0.00,WeatherDisplay:10.37,2013-03-13 06:55:00,
2013-03-13 02:58:00,36.8,18.9,29.98,SSE,147,0.0,0.0,48,0.00,CLR,,0.00,WeatherDisplay:10.37,2013-03-13 06:58:00,
2013-03-13 02:59:00,37.2,20.7,29.97,SSE,168,2.7,2.7,51,0.00,CLR,,0.00,WeatherDisplay:10.37,2013-03-13 06:59:00,
2013-03-13 03:00:00,37.1,20.2,29.97,SSE,168,2.0,8.1,50,0.00,CLR,,0.00,WeatherDisplay:10.37,2013-03-13 07:00:00,
2013-03-13 03:03:00,38.2,17.6,29.97,NW,315,0.0,0.0,43,0.00,CLR,,0.00,WeatherDisplay:10.37,2013-03-13 07:03:00,
2013-03-13 03:04:00,39.5,18.3,29.97,North,360,1.6,0.0,42,0.00,CLR,,0.00,WeatherDisplay:10.37,2013-03-13 07:04:00,
2013-03-13 03:05:00,39.3,18.1,29.97,North,360,1.4,4.6,42,0.00,CLR,,0.00,WeatherDisplay:10.37,2013-03-13 07:05:00,
2013-03-13 03:06:00,39.6,18.4,29.97,NW,319,1.8,4.6,42,0.00,CLR,,0.00,WeatherDisplay:10.37,2013-03-13 07:06:00,
2013-03-13 03:08:00,39.9,18.6,29.97,NW,319,0.0,0.0,42,0.00,CLR,,0.00,WeatherDisplay:10.37,2013-03-13 07:08:00,
2013-03-13 03:09:00,39.4,18.7,29.97,NW,319,0.0,0.0,43,0.00,CLR,,0.00,WeatherDisplay:10.37,2013-03-13 07:09:00,
2013-03-13 03:10:00,39.7,19.5,29.97,NW,319,0.0,0.0,44,0.00,CLR,,0.00,WeatherDisplay:10.37,2013-03-13 07:10:00,
2013-03-13 03:12:00,39.7,19.5,29.97,NW,319,0.0,0.0,44,0.00,CLR,,0.00,WeatherDisplay:10.37,2013-03-13 07:12:00,
2013-03-13 03:14:00,39.2,20.1,29.97,NW,319,0.0,0.0,46,0.00,CLR,,0.00,WeatherDisplay:10.37,2013-03-13 07:14:00,
2013-03-13 03:15:00,39.1,20.0,29.97,NW,319,0.0,0.0,46,0.00,CLR,,0.00,WeatherDisplay:10.37,2013-03-13 07:15:00,
2013-03-13 03:17:00,39.1,20.5,29.97,NW,319,0.0,0.0,47,0.00,CLR,,0.00,WeatherDisplay:10.37,2013-03-13 07:17:00,
2013-03-13 03:19:00,38.8,19.8,29.97,NW,320,1.5,5.6,46,0.00,CLR,,0.00,WeatherDisplay:10.37,2013-03-13 07:19:00,
2013-03-13 03:20:00,38.9,19.9,29.97,NW,326,2.7,4.6,46,0.00,CLR,,0.00,WeatherDisplay:10.37,2013-03-13 07:20:00,
2013-03-13 03:22:00,38.8,19.2,29.97,NNW,330,1.3,5.8,45,0.00,CLR,,0.00,WeatherDisplay:10.37,2013-03-13 07:22:00,
2013-03-13 03:24:00,39.2,19.6,29.97,WNW,301,3.7,4.6,45,0.00,CLR,,0.00,WeatherDisplay:10.37,2013-03-13 07:24:00,
2013-03-13 03:26:00,38.9,19.3,29.97,NW,318,2.2,6.9,45,0.00,CLR,,0.00,WeatherDisplay:10.37,2013-03-13 07:26:00,
2013-03-13 03:27:00,39.2,19.1,29.97,SW,232,2.1,5.8,44,0.00,CLR,,0.00,WeatherDisplay:10.37,2013-03-13 07:27:00,
2013-03-13 03:29:00,40.0,17.0,29.97,NNW,344,8.1,12.7,39,0.00,CLR,,0.00,WeatherDisplay:10.37,2013-03-13 07:29:00,
2013-03-13 03:31:00,40.3,18.4,29.97,NW,323,2.8,9.2,41,0.00,CLR,,0.00,WeatherDisplay:10.37,2013-03-13 07:31:00,
2013-03-13 03:32:00,39.8,18.5,29.97,NW,323,0.0,0.0,42,0.00,CLR,,0.00,WeatherDisplay:10.37,2013-03-13 07:32:00,
2013-03-13 03:34:00,39.9,19.2,29.97,West,275,3.1,5.8,43,0.00,CLR,,0.00,WeatherDisplay:10.37,2013-03-13 07:34:00,
2013-03-13 03:35:00,39.8,19.1,29.97,West,265,2.9,5.8,43,0.00,CLR,,0.00,WeatherDisplay:10.37,2013-03-13 07:35:00,
2013-03-13 03:36:00,39.9,19.2,29.97,WSW,257,0.4,4.6,43,0.00,CLR,,0.00,WeatherDisplay:10.37,2013-03-13 07:36:00,
2013-03-13 03:37:00,39.8,19.6,29.97,WSW,257,0.0,0.0,44,0.00,CLR,,0.00,WeatherDisplay:10.37,2013-03-13 07:37:00,
2013-03-13 03:39:00,39.8,19.1,29.97,WNW,284,4.8,9.2,43,0.00,CLR,,0.00,WeatherDisplay:10.37,2013-03-13 07:39:00,
2013-03-13 03:40:00,39.8,18.0,29.97,NW,311,6.8,10.4,41,0.00,CLR,,0.00,WeatherDisplay:10.37,2013-03-13 07:40:00,
2013-03-13 03:42:00,40.2,17.8,29.97,SW,236,5.1,8.1,40,0.00,CLR,,0.00,WeatherDisplay:10.37,2013-03-13 07:42:00,
2013-03-13 03:44:00,40.4,17.4,29.97,West,270,4.1,5.8,39,0.00,CLR,,0.00,WeatherDisplay:10.37,2013-03-13 07:44:00,
2013-03-13 03:45:00,40.6,16.3,29.97,WNW,294,6.3,8.1,37,0.00,CLR,,0.00,WeatherDisplay:10.37,2013-03-13 07:45:00,
2013-03-13 03:47:00,40.9,17.2,29.97,WNW,296,4.2,6.9,38,0.00,CLR,,0.00,WeatherDisplay:10.37,2013-03-13 07:47:00,
2013-03-13 03:49:00,41.1,16.1,29.97,WNW,287,6.7,11.5,36,0.00,CLR,,0.00,WeatherDisplay:10.37,2013-03-13 07:49:00,
2013-03-13 03:50:00,41.2,16.9,29.97,WNW,291,4.8,9.2,37,0.00,CLR,,0.00,WeatherDisplay:10.37,2013-03-13 07:50:00,
2013-03-13 03:52:00,41.3,16.9,29.97,WNW,298,6.1,10.4,37,0.00,CLR,,0.00,WeatherDisplay:10.37,2013-03-13 07:52:00,
2013-03-13 03:53:00,41.3,16.9,29.97,WNW,299,6.1,10.4,37,0.00,CLR,,0.00,WeatherDisplay:10.37,2013-03-13 07:53:00,
2013-03-13 03:54:00,41.2,17.5,29.97,WNW,295,4.5,6.9,38,0.00,CLR,,0.00,WeatherDisplay:10.37,2013-03-13 07:54:00,
2013-03-13 03:55:00,41.0,16.7,29.97,NW,325,5.6,6.9,37,0.00,CLR,,0.00,WeatherDisplay:10.37,2013-03-13 07:55:00,
2013-03-13 03:58:00,41.2,17.5,29.97,WSW,256,4.3,6.0,38,0.00,CLR,,0.00,WeatherDisplay:10.37,2013-03-13 07:58:00,
2013-03-13 04:00:00,41.2,17.5,29.97,NW,304,6.0,9.2,38,0.00,CLR,,0.00,WeatherDisplay:10.37,2013-03-13 08:00:00,
2013-03-13 04:03:00,41.4,17.7,29.97,NW,322,6.7,9.2,38,0.00,CLR,,0.00,WeatherDisplay:10.37,2013-03-13 08:03:00,
2013-03-13 04:08:00,41.3,16.9,29.96,NNW,328,7.1,10.4,37,0.00,CLR,,0.00,WeatherDisplay:10.37,2013-03-13 08:08:00,
2013-03-13 04:13:00,41.5,16.5,29.96,NW,320,6.6,10.4,36,0.00,CLR,,0.00,WeatherDisplay:10.37,2013-03-13 08:13:00,
2013-03-13 04:14:00,41.5,17.1,29.96,WNW,282,4.9,10.4,37,0.00,CLR,,0.00,WeatherDisplay:10.37,2013-03-13 08:14:00,
2013-03-13 04:18:00,41.1,17.4,29.96,West,267,8.1,17.0,38,0.00,CLR,,0.00,WeatherDisplay:10.37,2013-03-13 08:18:00,
2013-03-13 04:19:00,41.1,16.1,29.96,WNW,299,10.2,17.3,36,0.00,CLR,,0.00,WeatherDisplay:10.37,2013-03-13 08:19:00,
2013-03-13 04:23:00,42.1,14.3,29.97,West,268,8.6,13.8,32,0.00,CLR,,0.00,WeatherDisplay:10.37,2013-03-13 08:23:00,
2013-03-13 04:24:00,42.3,14.5,29.97,WNW,282,7.6,10.4,32,0.00,CLR,,0.00,WeatherDisplay:10.37,2013-03-13 08:24:00,
2013-03-13 04:28:00,42.5,13.9,29.97,WSW,254,7.6,13.8,31,0.00,CLR,,0.00,WeatherDisplay:10.37,2013-03-13 08:28:00,
2013-03-13 04:29:00,42.3,13.8,29.97,West,278,8.0,11.5,31,0.00,CLR,,0.00,WeatherDisplay:10.37,2013-03-13 08:29:00,
2013-03-13 04:34:00,42.7,14.1,29.97,WNW,301,8.7,12.7,31,0.00,CLR,,0.00,WeatherDisplay:10.37,2013-03-13 08:34:00,
2013-03-13 04:39:00,42.5,14.7,29.97,WNW,294,8.2,11.5,32,0.00,CLR,,0.00,WeatherDisplay:10.37,2013-03-13 08:39:00,
2013-03-13 04:44:00,42.4,14.6,29.97,WNW,296,8.3,13.8,32,0.00,CLR,,0.00,WeatherDisplay:10.37,2013-03-13 08:44:00,
2013-03-13 04:49:00,42.2,13.7,29.98,NW,313,9.9,19.8,31,0.00,CLR,,0.00,WeatherDisplay:10.37,2013-03-13 08:49:00,
2013-03-13 04:54:00,42.5,13.2,29.98,West,265,6.4,9.2,30,0.00,CLR,,0.00,WeatherDisplay:10.37,2013-03-13 08:54:00,
2013-03-13 04:55:00,42.5,13.2,29.98,WNW,299,5.2,9.2,30,0.00,CLR,,0.00,WeatherDisplay:10.37,2013-03-13 08:55:00,
2013-03-13 04:59:00,42.5,11.6,29.99,NW,318,9.1,12.7,28,0.00,CLR,,0.00,WeatherDisplay:10.37,2013-03-13 08:59:00,
2013-03-13 05:00:00,42.4,10.7,29.99,WNW,298,10.7,15.7,27,0.00,CLR,,0.00,WeatherDisplay:10.37,2013-03-13 09:00:00,
2013-03-13 05:04:00,42.3,8.9,29.99,WNW,287,9.5,13.8,25,0.00,CLR,,0.00,WeatherDisplay:10.37,2013-03-13 09:04:00,
2013-03-13 05:05:00,42.4,9.0,29.99,West,274,9.5,13.8,25,0.00,CLR,,0.00,WeatherDisplay:10.37,2013-03-13 09:05:00,
2013-03-13 05:10:00,42.5,10.0,29.99,WSW,251,7.2,11.5,26,0.00,CLR,,0.00,WeatherDisplay:10.37,2013-03-13 09:10:00,
2013-03-13 05:15:00,42.3,8.9,29.99,NW,320,6.2,11.5,25,0.00,CLR,,0.00,WeatherDisplay:10.37,2013-03-13 09:15:00,
2013-03-13 05:17:00,42.5,10.0,29.99,North,360,2.0,8.1,26,0.00,CLR,,0.00,WeatherDisplay:10.37,2013-03-13 09:17:00,
2013-03-13 05:20:00,42.0,9.5,29.99,WSW,256,1.9,5.8,26,0.00,CLR,,0.00,WeatherDisplay:10.37,2013-03-13 09:20:00,
2013-03-13 05:22:00,42.2,9.7,29.99,SW,229,5.8,9.1,26,0.00,CLR,,0.00,WeatherDisplay:10.37,2013-03-13 09:22:00,
2013-03-13 05:25:00,42.1,8.7,29.99,NW,312,7.3,9.2,25,0.00,CLR,,0.00,WeatherDisplay:10.37,2013-03-13 09:25:00,
2013-03-13 05:27:00,42.1,9.6,30.00,NW,320,2.3,7.0,26,0.00,CLR,,0.00,WeatherDisplay:10.37,2013-03-13 09:27:00,
2013-03-13 05:30:00,41.8,10.2,30.00,WNW,302,0.8,6.6,27,0.00,CLR,,0.00,WeatherDisplay:10.37,2013-03-13 09:30:00,
2013-03-13 05:31:00,42.0,10.4,30.00,WNW,294,3.6,5.5,27,0.00,CLR,,0.00,WeatherDisplay:10.37,2013-03-13 09:31:00,
2013-03-13 05:32:00,41.8,9.4,30.00,NW,320,3.1,7.8,26,0.00,CLR,,0.00,WeatherDisplay:10.37,2013-03-13 09:32:00,
2013-03-13 05:35:00,41.8,10.2,30.00,WNW,291,0.0,4.6,27,0.00,CLR,,0.00,WeatherDisplay:10.37,2013-03-13 09:35:00,
2013-03-13 05:38:00,41.7,10.9,30.00,WNW,284,2.2,5.0,28,0.00,CLR,,0.00,WeatherDisplay:10.37,2013-03-13 09:38:00,
2013-03-13 05:40:00,41.5,10.8,30.00,West,264,1.8,4.6,28,0.00,CLR,,0.00,WeatherDisplay:10.37,2013-03-13 09:40:00,
2013-03-13 05:43:00,41.4,10.7,30.00,NW,304,5.1,8.1,28,0.00,CLR,,0.00,WeatherDisplay:10.37,2013-03-13 09:43:00,
2013-03-13 05:45:00,41.3,10.6,30.00,NW,315,1.6,2.0,28,0.00,CLR,,0.00,WeatherDisplay:10.37,2013-03-13 09:45:00,
2013-03-13 05:46:00,41.3,10.6,30.00,WNW,294,1.4,4.6,28,0.00,CLR,,0.00,WeatherDisplay:10.37,2013-03-13 09:46:00,
2013-03-13 05:48:00,41.7,10.9,30.00,WNW,294,0.0,0.0,28,0.00,CLR,,0.00,WeatherDisplay:10.37,2013-03-13 09:48:00,
2013-03-13 05:51:00,41.1,9.6,30.00,WNW,284,2.8,7.1,27,0.00,CLR,,0.00,WeatherDisplay:10.37,2013-03-13 09:51:00,
2013-03-13 05:53:00,41.0,9.5,30.00,West,270,2.6,8.1,27,0.00,CLR,,0.00,WeatherDisplay:10.37,2013-03-13 09:53:00,
2013-03-13 05:56:00,41.1,9.6,30.00,NW,309,4.1,5.8,27,0.00,CLR,,0.00,WeatherDisplay:10.37,2013-03-13 09:56:00,
2013-03-13 05:57:00,41.0,9.5,30.00,WNW,295,3.6,5.8,27,0.00,CLR,,0.00,WeatherDisplay:10.37,2013-03-13 09:57:00,
2013-03-13 05:58:00,41.1,9.6,30.00,WNW,295,0.0,4.6,27,0.00,CLR,,0.00,WeatherDisplay:10.37,2013-03-13 09:58:00,
2013-03-13 06:01:00,41.0,10.3,30.00,WNW,295,0.0,0.0,28,0.00,CLR,,0.00,WeatherDisplay:10.37,2013-03-13 10:01:00,
2013-03-13 06:02:00,41.1,10.4,30.00,WNW,295,0.0,0.0,28,0.00,CLR,,0.00,WeatherDisplay:10.37,2013-03-13 10:02:00,
2013-03-13 06:03:00,41.0,10.3,30.00,WNW,295,0.0,0.0,28,0.00,CLR,,0.00,WeatherDisplay:10.37,2013-03-13 10:03:00,
2013-03-13 06:04:00,40.9,10.2,30.00,WNW,295,0.0,0.0,28,0.00,CLR,,0.00,WeatherDisplay:10.37,2013-03-13 10:04:00,
2013-03-13 06:07:00,41.0,10.3,30.00,WNW,295,0.0,0.0,28,0.00,CLR,,0.00,WeatherDisplay:10.37,2013-03-13 10:07:00,
2013-03-13 06:08:00,40.4,9.8,30.00,NW,323,1.4,5.8,28,0.00,CLR,,0.00,WeatherDisplay:10.37,2013-03-13 10:08:00,
2013-03-13 06:09:00,40.5,9.9,30.00,NW,323,0.2,5.8,28,0.00,CLR,,0.00,WeatherDisplay:10.37,2013-03-13 10:09:00,
2013-03-13 06:12:00,40.2,11.2,30.00,West,260,0.0,0.0,30,0.00,CLR,,0.00,WeatherDisplay:10.37,2013-03-13 10:12:00,
2013-03-13 06:14:00,40.2,11.2,30.00,West,260,0.0,0.0,30,0.00,CLR,,0.00,WeatherDisplay:10.37,2013-03-13 10:14:00,
2013-03-13 06:17:00,39.8,10.8,30.00,West,260,0.0,0.0,30,0.00,CLR,,0.00,WeatherDisplay:10.37,2013-03-13 10:17:00,
2013-03-13 06:19:00,40.1,11.1,30.00,West,260,0.0,0.0,30,0.00,CLR,,0.00,WeatherDisplay:10.37,2013-03-13 10:19:00,
2013-03-13 06:22:00,39.7,10.7,30.00,West,260,0.0,0.0,30,0.00,CLR,,0.00,WeatherDisplay:10.37,2013-03-13 10:22:00,
2013-03-13 06:23:00,40.0,11.0,30.00,West,260,0.0,0.0,30,0.00,CLR,,0.00,WeatherDisplay:10.37,2013-03-13 10:23:00,
2013-03-13 06:24:00,39.8,10.8,30.00,West,260,0.0,0.0,30,0.00,CLR,,0.00,WeatherDisplay:10.37,2013-03-13 10:24:00,
2013-03-13 06:27:00,39.8,11.6,30.00,West,260,0.0,0.0,31,0.00,CLR,,0.00,WeatherDisplay:10.37,2013-03-13 10:27:00,
2013-03-13 06:29:00,39.7,10.7,30.00,West,260,0.0,0.0,30,0.00,CLR,,0.00,WeatherDisplay:10.37,2013-03-13 10:29:00,
2013-03-13 06:33:00,39.3,10.4,30.01,WNW,285,0.0,0.0,30,0.00,CLR,,0.00,WeatherDisplay:10.37,2013-03-13 10:33:00,
2013-03-13 06:34:00,39.7,10.7,30.00,WNW,285,0.0,0.0,30,0.00,CLR,,0.00,WeatherDisplay:10.37,2013-03-13 10:34:00,
2013-03-13 06:38:00,39.7,10.7,30.00,WNW,285,0.0,0.0,30,0.00,CLR,,0.00,WeatherDisplay:10.37,2013-03-13 10:38:00,
2013-03-13 06:39:00,39.6,10.7,30.00,WNW,285,0.0,0.0,30,0.00,CLR,,0.00,WeatherDisplay:10.37,2013-03-13 10:39:00,
2013-03-13 06:43:00,39.5,11.3,30.00,WNW,294,1.3,3.5,31,0.00,CLR,,0.00,WeatherDisplay:10.37,2013-03-13 10:43:00,
2013-03-13 06:44:00,39.3,11.1,30.00,WNW,294,0.7,4.6,31,0.00,CLR,,0.00,WeatherDisplay:10.37,2013-03-13 10:44:00,
2013-03-13 06:48:00,39.3,11.1,30.00,WNW,289,1.2,3.5,31,0.00,CLR,,0.00,WeatherDisplay:10.37,2013-03-13 10:48:00,
2013-03-13 06:49:00,37.7,9.7,30.01,WNW,289,0.0,4.6,31,0.00,CLR,,0.00,WeatherDisplay:10.37,2013-03-13 10:49:00,
2013-03-13 06:53:00,37.9,9.2,30.00,NW,311,0.0,0.0,30,0.00,CLR,,0.00,WeatherDisplay:10.37,2013-03-13 10:53:00,
2013-03-13 06:54:00,38.1,9.4,30.00,NW,311,0.0,0.0,30,0.00,CLR,,0.00,WeatherDisplay:10.37,2013-03-13 10:54:00,
2013-03-13 06:58:00,38.8,10.0,30.00,NW,311,0.0,0.0,30,0.00,CLR,,0.00,WeatherDisplay:10.37,2013-03-13 10:58:00,
2013-03-13 06:59:00,38.9,10.8,30.00,NW,311,0.0,0.0,31,0.00,CLR,,0.00,WeatherDisplay:10.37,2013-03-13 10:59:00,
2013-03-13 07:00:00,39.1,11.0,30.00,NW,311,0.0,0.0,31,0.00,CLR,,0.00,WeatherDisplay:10.37,2013-03-13 11:00:00,
2013-03-13 07:04:00,38.8,10.7,30.00,NW,311,0.0,0.0,31,0.00,CLR,,0.00,WeatherDisplay:10.37,2013-03-13 11:04:00,
2013-03-13 07:05:00,39.0,10.9,30.00,NW,311,0.0,0.0,31,0.00,CLR,,0.00,WeatherDisplay:10.37,2013-03-13 11:05:00,
2013-03-13 07:09:00,38.9,11.5,30.00,NW,311,0.0,0.0,32,0.00,CLR,,0.00,WeatherDisplay:10.37,2013-03-13 11:09:00,
2013-03-13 07:10:00,38.8,11.4,30.00,NW,311,0.0,0.0,32,0.00,CLR,,0.00,WeatherDisplay:10.37,2013-03-13 11:10:00,
2013-03-13 07:14:00,38.3,11.0,30.00,NW,311,0.0,0.0,32,0.00,CLR,,0.00,WeatherDisplay:10.37,2013-03-13 11:14:00,
2013-03-13 07:15:00,38.4,11.1,30.00,NW,311,0.0,0.0,32,0.00,CLR,,0.00,WeatherDisplay:10.37,2013-03-13 11:15:00,
2013-03-13 07:16:00,38.0,10.7,30.00,NW,311,0.0,0.0,32,0.00,CLR,,0.00,WeatherDisplay:10.37,2013-03-13 11:16:00,
2013-03-13 07:19:00,36.2,9.8,30.00,NW,311,0.0,0.0,33,0.00,CLR,,0.00,WeatherDisplay:10.37,2013-03-13 11:19:00,
2013-03-13 07:20:00,36.4,10.0,30.00,NW,311,0.0,0.0,33,0.00,CLR,,0.00,WeatherDisplay:10.37,2013-03-13 11:20:00,
2013-03-13 07:21:00,35.3,10.3,30.00,NW,311,0.0,0.0,35,0.00,CLR,,0.00,WeatherDisplay:10.37,2013-03-13 11:21:00,
2013-03-13 07:25:00,35.1,10.2,30.00,NW,311,0.0,0.0,35,0.00,CLR,,0.00,WeatherDisplay:10.37,2013-03-13 11:25:00,
2013-03-13 07:26:00,35.4,10.4,30.00,NW,311,0.0,0.0,35,0.00,CLR,,0.00,WeatherDisplay:10.37,2013-03-13 11:26:00,
2013-03-13 07:27:00,36.9,11.8,30.00,NW,311,0.0,0.0,35,0.00,CLR,,0.00,WeatherDisplay:10.37,2013-03-13 11:27:00,
2013-03-13 07:30:00,36.4,11.3,30.00,NW,311,0.0,0.0,35,0.00,CLR,,0.00,WeatherDisplay:10.37,2013-03-13 11:30:00,
2013-03-13 07:31:00,36.2,12.4,30.00,NW,311,0.0,0.0,37,0.00,CLR,,0.00,WeatherDisplay:10.37,2013-03-13 11:31:00,
2013-03-13 07:32:00,36.3,12.5,30.00,NW,311,0.0,0.0,37,0.00,CLR,,0.00,WeatherDisplay:10.37,2013-03-13 11:32:00,
2013-03-13 07:35:00,36.5,12.7,30.01,NW,311,0.0,0.0,37,0.00,CLR,,0.00,WeatherDisplay:10.37,2013-03-13 11:35:00,
2013-03-13 07:37:00,36.2,12.4,30.01,NW,311,0.0,0.0,37,0.00,CLR,,0.00,WeatherDisplay:10.37,2013-03-13 11:37:00,
2013-03-13 07:40:00,36.4,11.9,30.01,NW,311,0.0,0.0,36,0.00,CLR,,0.00,WeatherDisplay:10.37,2013-03-13 11:40:00,
2013-03-13 07:41:00,36.0,11.6,30.01,NW,311,0.0,0.0,36,0.00,CLR,,0.00,WeatherDisplay:10.37,2013-03-13 11:41:00,
2013-03-13 07:42:00,36.8,12.9,30.01,NW,311,0.0,0.0,37,0.00,CLR,,0.00,WeatherDisplay:10.37,2013-03-13 11:42:00,
2013-03-13 07:43:00,36.5,12.7,30.01,NW,311,0.0,0.0,37,0.00,CLR,,0.00,WeatherDisplay:10.37,2013-03-13 11:43:00,
2013-03-13 07:46:00,36.2,12.4,30.01,NW,311,0.0,0.0,37,0.00,CLR,,0.00,WeatherDisplay:10.37,2013-03-13 11:46:00,
2013-03-13 07:47:00,36.7,12.8,30.01,NW,311,0.0,0.0,37,0.00,CLR,,0.00,WeatherDisplay:10.37,2013-03-13 11:47:00,
2013-03-13 07:48:00,36.1,12.3,30.01,NW,311,0.0,0.0,37,0.00,CLR,,0.00,WeatherDisplay:10.37,2013-03-13 11:48:00,
2013-03-13 07:51:00,36.3,13.1,30.00,NW,311,0.0,0.0,38,0.00,CLR,,0.00,WeatherDisplay:10.37,2013-03-13 11:51:00,
2013-03-13 07:52:00,36.4,13.2,30.00,NW,311,0.0,0.0,38,0.00,CLR,,0.00,WeatherDisplay:10.37,2013-03-13 11:52:00,
2013-03-13 07:53:00,35.8,13.2,30.00,NW,311,0.0,0.0,39,0.00,CLR,,0.00,WeatherDisplay:10.37,2013-03-13 11:53:00,
2013-03-13 07:57:00,35.7,13.1,30.00,NW,311,0.0,0.0,39,0.00,CLR,,0.00,WeatherDisplay:10.37,2013-03-13 11:57:00,
2013-03-13 07:58:00,36.0,14.0,30.00,NW,311,0.0,0.0,40,0.00,CLR,,0.00,WeatherDisplay:10.37,2013-03-13 11:58:00,
2013-03-13 08:02:00,35.4,14.6,30.01,NW,311,0.0,0.0,42,0.00,CLR,,0.00,WeatherDisplay:10.37,2013-03-13 12:02:00,
2013-03-13 08:03:00,34.8,14.0,30.01,NW,311,0.0,0.0,42,0.00,CLR,,0.00,WeatherDisplay:10.37,2013-03-13 12:03:00,
2013-03-13 08:07:00,35.1,14.8,30.01,NW,311,0.0,0.0,43,0.00,CLR,,0.00,WeatherDisplay:10.37,2013-03-13 12:07:00,
2013-03-13 08:08:00,35.0,14.2,30.01,NW,311,0.0,0.0,42,0.00,CLR,,0.00,WeatherDisplay:10.37,2013-03-13 12:08:00,
2013-03-13 08:12:00,36.2,13.0,30.01,NW,311,0.0,0.0,38,0.00,CLR,,0.00,WeatherDisplay:10.37,2013-03-13 12:12:00,
2013-03-13 08:13:00,36.7,14.0,30.01,NW,311,0.0,0.0,39,0.00,CLR,,0.00,WeatherDisplay:10.37,2013-03-13 12:13:00,
2013-03-13 08:14:00,37.0,14.3,30.01,NW,311,0.0,0.0,39,0.00,CLR,,0.00,WeatherDisplay:10.37,2013-03-13 12:14:00,
2013-03-13 08:17:00,37.7,13.1,30.01,NW,311,0.0,0.0,36,0.00,CLR,,0.00,WeatherDisplay:10.37,2013-03-13 12:17:00,
2013-03-13 08:18:00,38.0,13.4,30.01,NW,311,0.0,0.0,36,0.00,CLR,,0.00,WeatherDisplay:10.37,2013-03-13 12:18:00,
2013-03-13 08:19:00,37.8,13.2,30.01,NW,311,0.0,0.0,36,0.00,CLR,,0.00,WeatherDisplay:10.37,2013-03-13 12:19:00,
2013-03-13 08:23:00,38.5,13.8,30.01,NW,311,0.0,0.0,36,0.00,CLR,,0.00,WeatherDisplay:10.37,2013-03-13 12:23:00,
2013-03-13 08:24:00,38.2,13.6,30.01,NW,311,0.0,0.0,36,0.00,CLR,,0.00,WeatherDisplay:10.37,2013-03-13 12:24:00,
2013-03-13 08:28:00,38.8,13.4,30.01,NW,311,0.0,0.0,35,0.00,CLR,,0.00,WeatherDisplay:10.37,2013-03-13 12:28:00,
2013-03-13 08:29:00,39.4,14.0,30.01,NW,311,0.0,0.0,35,0.00,CLR,,0.00,WeatherDisplay:10.37,2013-03-13 12:29:00,
2013-03-13 08:33:00,40.1,13.9,30.01,NW,311,0.0,0.0,34,0.00,CLR,,0.00,WeatherDisplay:10.37,2013-03-13 12:33:00,
2013-03-13 08:34:00,40.7,13.8,30.01,NW,311,0.0,0.0,33,0.00,CLR,,0.00,WeatherDisplay:10.37,2013-03-13 12:34:00,
2013-03-13 08:35:00,40.4,14.2,30.01,NW,311,0.0,0.0,34,0.00,CLR,,0.00,WeatherDisplay:10.37,2013-03-13 12:35:00,
2013-03-13 08:38:00,41.6,13.2,30.01,NW,311,0.0,0.0,31,0.00,CLR,,0.00,WeatherDisplay:10.37,2013-03-13 12:38:00,
2013-03-13 08:39:00,41.7,13.2,30.01,NW,311,0.0,0.0,31,0.00,CLR,,0.00,WeatherDisplay:10.37,2013-03-13 12:39:00,
2013-03-13 08:40:00,41.9,12.7,30.01,NW,311,0.0,0.0,30,0.00,CLR,,0.00,WeatherDisplay:10.37,2013-03-13 12:40:00,
2013-03-13 08:43:00,42.7,11.8,30.01,NW,311,0.0,0.0,28,0.00,CLR,,0.00,WeatherDisplay:10.37,2013-03-13 12:43:00,
2013-03-13 08:44:00,42.9,12.0,30.01,NW,311,0.0,0.0,28,0.00,CLR,,0.00,WeatherDisplay:10.37,2013-03-13 12:44:00,
2013-03-13 08:45:00,43.4,12.4,30.01,NW,311,0.0,0.0,28,0.00,CLR,,0.00,WeatherDisplay:10.37,2013-03-13 12:45:00,
2013-03-13 08:48:00,44.3,11.5,30.01,NW,311,0.0,0.0,26,0.00,CLR,,0.00,WeatherDisplay:10.37,2013-03-13 12:48:00,
2013-03-13 08:49:00,44.6,12.6,30.01,NW,311,0.0,0.0,27,0.00,CLR,,0.00,WeatherDisplay:10.37,2013-03-13 12:49:00,
2013-03-13 08:50:00,45.1,12.2,30.01,NW,311,0.0,0.0,26,0.00,CLR,,0.00,WeatherDisplay:10.37,2013-03-13 12:50:00,
2013-03-13 08:53:00,45.8,4.6,30.01,NW,311,0.0,0.0,18,0.00,CLR,,0.00,WeatherDisplay:10.37,2013-03-13 12:53:00,
2013-03-13 08:54:00,46.0,4.8,30.01,NW,311,0.0,0.0,18,0.00,CLR,,0.00,WeatherDisplay:10.37,2013-03-13 12:54:00,
2013-03-13 08:55:00,45.9,5.9,30.02,NW,311,0.0,0.0,19,0.00,CLR,,0.00,WeatherDisplay:10.37,2013-03-13 12:55:00,
2013-03-13 08:59:00,44.1,8.6,30.01,West,281,0.0,0.0,23,0.00,CLR,,0.00,WeatherDisplay:10.37,2013-03-13 12:59:00,
2013-03-13 09:00:00,43.8,10.2,30.01,WSW,239,1.2,0.0,25,0.00,CLR,,0.00,WeatherDisplay:10.37,2013-03-13 13:00:00,
2013-03-13 09:04:00,43.1,9.6,30.01,SSW,210,2.0,5.8,25,0.00,CLR,,0.00,WeatherDisplay:10.37,2013-03-13 13:04:00,
2013-03-13 09:05:00,42.9,10.3,30.01,SSW,210,0.0,0.0,26,0.00,CLR,,0.00,WeatherDisplay:10.37,2013-03-13 13:05:00,
2013-03-13 09:06:00,42.8,10.2,30.01,SSW,210,0.0,0.0,26,0.00,CLR,,0.00,WeatherDisplay:10.37,2013-03-13 13:06:00,
2013-03-13 09:09:00,42.6,9.2,30.01,West,268,4.1,10.4,25,0.00,CLR,,0.00,WeatherDisplay:10.37,2013-03-13 13:09:00,
2013-03-13 09:10:00,42.2,8.8,30.01,West,260,3.5,8.1,25,0.00,CLR,,0.00,WeatherDisplay:10.37,2013-03-13 13:10:00,
2013-03-13 09:11:00,42.6,9.2,30.01,West,261,4.8,8.1,25,0.00,CLR,,0.00,WeatherDisplay:10.37,2013-03-13 13:11:00,
2013-03-13 09:14:00,42.7,10.1,30.02,WNW,284,2.3,5.8,26,0.00,CLR,,0.00,WeatherDisplay:10.37,2013-03-13 13:14:00,
2013-03-13 09:16:00,42.4,9.9,30.01,WSW,258,2.8,5.8,26,0.00,CLR,,0.00,WeatherDisplay:10.37,2013-03-13 13:16:00,
2013-03-13 09:19:00,42.6,9.2,30.01,SSW,205,1.2,3.5,25,0.00,CLR,,0.00,WeatherDisplay:10.37,2013-03-13 13:19:00,
2013-03-13 09:21:00,42.2,7.9,30.01,West,271,2.2,5.3,24,0.00,CLR,,0.00,WeatherDisplay:10.37,2013-03-13 13:21:00,
2013-03-13 09:22:00,42.5,9.1,30.01,WNW,282,1.5,5.8,25,0.00,CLR,,0.00,WeatherDisplay:10.37,2013-03-13 13:22:00,
2013-03-13 09:24:00,42.0,8.7,30.01,West,275,4.6,5.8,25,0.00,CLR,,0.00,WeatherDisplay:10.37,2013-03-13 13:24:00,
2013-03-13 09:27:00,42.3,9.8,30.01,NNW,340,1.6,4.7,26,0.00,CLR,,0.00,WeatherDisplay:10.37,2013-03-13 13:27:00,
2013-03-13 09:29:00,42.7,9.3,30.01,West,271,4.2,6.9,25,0.00,CLR,,0.00,WeatherDisplay:10.37,2013-03-13 13:29:00,
2013-03-13 09:30:00,42.7,9.3,30.01,WNW,288,3.2,6.9,25,0.00,CLR,,0.00,WeatherDisplay:10.37,2013-03-13 13:30:00,
2013-03-13 09:32:00,43.2,8.8,30.01,WNW,299,0.0,5.8,24,0.00,CLR,,0.00,WeatherDisplay:10.37,2013-03-13 13:32:00,
2013-03-13 09:33:00,43.2,8.8,30.01,WNW,299,0.0,5.8,24,0.00,CLR,,0.00,WeatherDisplay:10.37,2013-03-13 13:33:00,
2013-03-13 09:34:00,43.2,6.8,30.02,West,268,6.9,12.7,22,0.00,CLR,,0.00,WeatherDisplay:10.37,2013-03-13 13:34:00,
2013-03-13 09:35:00,42.9,7.6,30.02,WSW,254,6.9,12.7,23,0.00,CLR,,0.00,WeatherDisplay:10.37,2013-03-13 13:35:00,
2013-03-13 09:38:00,43.5,8.1,30.02,WNW,284,6.5,10.4,23,0.00,CLR,,0.00,WeatherDisplay:10.37,2013-03-13 13:38:00,
2013-03-13 09:39:00,42.9,8.5,30.02,West,264,5.8,8.1,24,0.00,CLR,,0.00,WeatherDisplay:10.37,2013-03-13 13:39:00,
2013-03-13 09:40:00,43.1,8.7,30.02,West,264,5.1,8.1,24,0.00,CLR,,0.00,WeatherDisplay:10.37,2013-03-13 13:40:00,
2013-03-13 09:43:00,42.4,8.1,30.02,WSW,246,8.0,11.5,24,0.00,CLR,,0.00,WeatherDisplay:10.37,2013-03-13 13:43:00,
2013-03-13 09:44:00,42.0,8.7,30.02,NW,320,4.4,9.2,25,0.00,CLR,,0.00,WeatherDisplay:10.37,2013-03-13 13:44:00,
2013-03-13 09:45:00,42.1,8.7,30.02,West,267,4.2,9.2,25,0.00,CLR,,0.00,WeatherDisplay:10.37,2013-03-13 13:45:00,
2013-03-13 09:48:00,41.6,9.2,30.02,WNW,302,5.7,14.7,26,0.00,CLR,,0.00,WeatherDisplay:10.37,2013-03-13 13:48:00,
2013-03-13 09:50:00,41.8,8.5,30.02,WNW,292,6.6,9.2,25,0.00,CLR,,0.00,WeatherDisplay:10.37,2013-03-13 13:50:00,
2013-03-13 09:53:00,42.5,10.8,30.02,WNW,289,5.9,11.5,27,0.00,CLR,,0.00,WeatherDisplay:10.37,2013-03-13 13:53:00,
2013-03-13 09:54:00,42.3,9.8,30.02,WNW,282,3.2,6.9,26,0.00,CLR,,0.00,WeatherDisplay:10.37,2013-03-13 13:54:00,
2013-03-13 09:55:00,42.5,10.0,30.02,WSW,257,4.2,8.0,26,0.00,CLR,,0.00,WeatherDisplay:10.37,2013-03-13 13:55:00,
2013-03-13 09:58:00,42.7,9.3,30.02,WNW,288,5.9,12.7,25,0.00,CLR,,0.00,WeatherDisplay:10.37,2013-03-13 13:58:00,
2013-03-13 09:59:00,42.5,9.1,30.02,WNW,296,6.1,9.9,25,0.00,CLR,,0.00,WeatherDisplay:10.37,2013-03-13 13:59:00,
2013-03-13 10:00:00,42.3,9.8,30.01,WNW,292,7.3,11.5,26,0.00,CLR,,0.00,WeatherDisplay:10.37,2013-03-13 14:00:00,
2013-03-13 10:01:00,42.5,9.1,30.01,WNW,296,6.9,10.4,25,0.00,CLR,,0.00,WeatherDisplay:10.37,2013-03-13 14:01:00,
2013-03-13 10:03:00,42.2,8.8,30.01,WNW,294,7.0,10.4,25,0.00,CLR,,0.00,WeatherDisplay:10.37,2013-03-13 14:03:00,
2013-03-13 10:04:00,42.2,8.8,30.01,West,280,6.9,10.4,25,0.00,CLR,,0.00,WeatherDisplay:10.37,2013-03-13 14:04:00,
2013-03-13 10:05:00,42.5,10.0,30.01,WSW,254,6.0,9.2,26,0.00,CLR,,0.00,WeatherDisplay:10.37,2013-03-13 14:05:00,
2013-03-13 10:07:00,42.6,9.2,30.01,WNW,288,9.2,15.4,25,0.00,CLR,,0.00,WeatherDisplay:10.37,2013-03-13 14:07:00,
2013-03-13 10:09:00,42.3,8.0,30.01,West,272,8.0,10.4,24,0.00,CLR,,0.00,WeatherDisplay:10.37,2013-03-13 14:09:00,
2013-03-13 10:10:00,42.2,7.9,30.01,WSW,243,9.5,13.8,24,0.00,CLR,,0.00,WeatherDisplay:10.37,2013-03-13 14:10:00,
2013-03-13 10:12:00,42.6,9.2,30.01,WSW,251,6.5,11.5,25,0.00,CLR,,0.00,WeatherDisplay:10.37,2013-03-13 14:12:00,
2013-03-13 10:14:00,42.7,8.4,30.01,WNW,282,7.2,11.5,24,0.00,CLR,,0.00,WeatherDisplay:10.37,2013-03-13 14:14:00,
2013-03-13 10:15:00,42.5,7.2,30.02,West,281,11.6,12.7,23,0.00,CLR,,0.00,WeatherDisplay:10.37,2013-03-13 14:15:00,
2013-03-13 10:17:00,42.9,10.3,30.01,West,264,5.0,13.8,26,0.00,CLR,,0.00,WeatherDisplay:10.37,2013-03-13 14:17:00,
2013-03-13 10:19:00,43.3,8.9,30.02,WNW,296,5.4,11.4,24,0.00,CLR,,0.00,WeatherDisplay:10.37,2013-03-13 14:19:00,
2013-03-13 10:20:00,43.3,8.9,30.02,WSW,248,7.7,11.5,24,0.00,CLR,,0.00,WeatherDisplay:10.37,2013-03-13 14:20:00,
2013-03-13 10:22:00,43.5,9.0,30.02,SSW,203,7.5,16.0,24,0.00,CLR,,0.00,WeatherDisplay:10.37,2013-03-13 14:22:00,
2013-03-13 10:24:00,43.3,8.9,30.02,WNW,288,6.6,9.2,24,0.00,CLR,,0.00,WeatherDisplay:10.37,2013-03-13 14:24:00,
2013-03-13 10:25:00,43.4,10.7,30.02,WNW,292,5.9,9.2,26,0.00,CLR,,0.00,WeatherDisplay:10.37,2013-03-13 14:25:00,
2013-03-13 10:27:00,43.1,10.5,30.02,WNW,288,7.2,13.8,26,0.00,CLR,,0.00,WeatherDisplay:10.37,2013-03-13 14:27:00,
2013-03-13 10:29:00,42.7,10.1,30.02,WSW,257,9.4,12.7,26,0.00,CLR,,0.00,WeatherDisplay:10.37,2013-03-13 14:29:00,
2013-03-13 10:30:00,42.7,10.1,30.02,WSW,243,8.9,12.7,26,0.00,CLR,,0.00,WeatherDisplay:10.37,2013-03-13 14:30:00,
2013-03-13 10:32:00,43.3,11.5,30.02,West,263,6.9,9.2,27,0.00,CLR,,0.00,WeatherDisplay:10.37,2013-03-13 14:32:00,
2013-03-13 10:35:00,43.0,11.2,30.02,West,261,7.1,11.5,27,0.00,CLR,,0.00,WeatherDisplay:10.37,2013-03-13 14:35:00,
2013-03-13 10:37:00,42.7,11.0,30.02,NW,323,8.6,16.1,27,0.00,CLR,,0.00,WeatherDisplay:10.37,2013-03-13 14:37:00,
2013-03-13 10:40:00,42.6,10.1,30.02,WNW,282,8.0,17.3,26,0.00,CLR,,0.00,WeatherDisplay:10.37,2013-03-13 14:40:00,
2013-03-13 10:42:00,43.0,11.2,30.02,SW,227,6.7,13.8,27,0.00,CLR,,0.00,WeatherDisplay:10.37,2013-03-13 14:42:00,
2013-03-13 10:45:00,43.5,10.8,30.02,WSW,237,12.5,16.1,26,0.00,CLR,,0.00,WeatherDisplay:10.37,2013-03-13 14:45:00,
2013-03-13 10:46:00,43.2,10.6,30.02,West,281,9.2,17.3,26,0.00,CLR,,0.00,WeatherDisplay:10.37,2013-03-13 14:46:00,
2013-03-13 10:47:00,43.4,10.7,30.02,SW,232,9.4,13.8,26,0.00,CLR,,0.00,WeatherDisplay:10.37,2013-03-13 14:47:00,
2013-03-13 10:48:00,43.4,9.9,30.01,West,267,10.1,15.0,25,0.00,CLR,,0.00,WeatherDisplay:10.37,2013-03-13 14:48:00,
2013-03-13 10:50:00,43.0,9.5,30.01,West,267,12.8,19.6,25,0.00,CLR,,0.00,WeatherDisplay:10.37,2013-03-13 14:50:00,
2013-03-13 10:52:00,43.1,9.6,30.01,NW,312,8.3,15.0,25,0.00,CLR,,0.00,WeatherDisplay:10.37,2013-03-13 14:52:00,
2013-03-13 10:53:00,42.8,9.3,30.01,West,272,10.6,13.8,25,0.00,CLR,,0.00,WeatherDisplay:10.37,2013-03-13 14:53:00,
2013-03-13 10:55:00,42.7,11.0,30.01,WNW,285,9.8,13.8,27,0.00,CLR,,0.00,WeatherDisplay:10.37,2013-03-13 14:55:00,
2013-03-13 10:57:00,42.8,10.2,30.02,WSW,239,9.7,15.0,26,0.00,CLR,,0.00,WeatherDisplay:10.37,2013-03-13 14:57:00,
2013-03-13 10:58:00,43.2,10.6,30.02,WNW,285,10.3,17.3,26,0.00,CLR,,0.00,WeatherDisplay:10.37,2013-03-13 14:58:00,
2013-03-13 11:00:00,43.1,9.6,30.01,WSW,248,6.8,11.5,25,0.00,CLR,,0.00,WeatherDisplay:10.37,2013-03-13 15:00:00,
2013-03-13 11:03:00,43.7,8.3,30.01,West,275,12.8,18.4,23,0.00,CLR,,0.00,WeatherDisplay:10.37,2013-03-13 15:03:00,
2013-03-13 11:05:00,43.7,7.3,30.01,WSW,251,10.3,13.8,22,0.00,CLR,,0.00,WeatherDisplay:10.37,2013-03-13 15:05:00,
2013-03-13 11:08:00,43.4,8.0,30.01,West,278,9.7,16.1,23,0.00,CLR,,0.00,WeatherDisplay:10.37,2013-03-13 15:08:00,
2013-03-13 11:11:00,43.5,8.1,30.01,WNW,296,10.8,14.5,23,0.00,CLR,,0.00,WeatherDisplay:10.37,2013-03-13 15:11:00,
2013-03-13 11:13:00,43.5,9.0,30.01,WNW,282,8.6,13.8,24,0.00,CLR,,0.00,WeatherDisplay:10.37,2013-03-13 15:13:00,
2013-03-13 11:14:00,43.2,8.8,30.01,NW,313,10.2,12.7,24,0.00,CLR,,0.00,WeatherDisplay:10.37,2013-03-13 15:14:00,
2013-03-13 11:16:00,44.0,9.5,30.01,West,260,6.9,10.4,24,0.00,CLR,,0.00,WeatherDisplay:10.37,2013-03-13 15:16:00,
2013-03-13 11:19:00,44.0,8.5,30.01,WSW,258,10.2,13.8,23,0.00,CLR,,0.00,WeatherDisplay:10.37,2013-03-13 15:19:00,
2013-03-13 11:22:00,44.6,7.0,30.01,West,271,10.0,13.8,21,0.00,CLR,,0.00,WeatherDisplay:10.37,2013-03-13 15:22:00,
2013-03-13 11:24:00,44.2,7.7,30.01,WNW,291,8.7,13.8,22,0.00,CLR,,0.00,WeatherDisplay:10.37,2013-03-13 15:24:00,
2013-03-13 11:27:00,43.5,5.0,30.01,WSW,251,9.2,18.4,20,0.00,CLR,,0.00,WeatherDisplay:10.37,2013-03-13 15:27:00,
2013-03-13 11:29:00,43.7,8.3,30.01,NW,306,6.0,15.0,23,0.00,CLR,,0.00,WeatherDisplay:10.37,2013-03-13 15:29:00,
2013-03-13 11:32:00,43.2,5.8,30.01,NW,326,12.6,20.7,21,0.00,CLR,,0.00,WeatherDisplay:10.37,2013-03-13 15:32:00,
2013-03-13 11:34:00,43.1,6.8,30.01,West,271,9.1,16.2,22,0.00,CLR,,0.00,WeatherDisplay:10.37,2013-03-13 15:34:00,
2013-03-13 11:35:00,43.5,7.1,30.01,WNW,294,9.8,16.1,22,0.00,CLR,,0.00,WeatherDisplay:10.37,2013-03-13 15:35:00,
2013-03-13 11:37:00,43.7,5.2,30.02,WNW,292,10.6,18.4,20,0.00,CLR,,0.00,WeatherDisplay:10.37,2013-03-13 15:37:00,
2013-03-13 11:39:00,43.7,6.2,30.02,WSW,244,8.6,16.1,21,0.00,CLR,,0.00,WeatherDisplay:10.37,2013-03-13 15:39:00,
2013-03-13 11:40:00,43.3,5.9,30.02,West,263,9.2,12.7,21,0.00,CLR,,0.00,WeatherDisplay:10.37,2013-03-13 15:40:00,
2013-03-13 11:41:00,43.1,8.7,30.02,SW,215,11.2,20.7,24,0.00,CLR,,0.00,WeatherDisplay:10.37,2013-03-13 15:41:00,
2013-03-13 11:42:00,42.8,10.2,30.01,NNW,340,8.2,18.4,26,0.00,CLR,,0.00,WeatherDisplay:10.37,2013-03-13 15:42:00,
2013-03-13 11:44:00,42.8,8.4,30.02,West,274,9.4,13.8,24,0.00,CLR,,0.00,WeatherDisplay:10.37,2013-03-13 15:44:00,
2013-03-13 11:45:00,42.9,8.5,30.02,West,274,8.0,13.8,24,0.00,CLR,,0.00,WeatherDisplay:10.37,2013-03-13 15:45:00,
2013-03-13 11:47:00,42.7,10.1,30.02,WSW,251,9.6,16.1,26,0.00,CLR,,0.00,WeatherDisplay:10.37,2013-03-13 15:47:00,
2013-03-13 11:49:00,42.4,10.7,30.02,West,281,11.9,17.3,27,0.00,CLR,,0.00,WeatherDisplay:10.37,2013-03-13 15:49:00,
2013-03-13 11:50:00,42.3,10.6,30.02,West,280,12.3,18.4,27,0.00,CLR,,0.00,WeatherDisplay:10.37,2013-03-13 15:50:00,
2013-03-13 11:52:00,43.2,11.4,30.02,WSW,253,8.4,12.9,27,0.00,CLR,,0.00,WeatherDisplay:10.37,2013-03-13 15:52:00,
2013-03-13 11:53:00,43.0,11.2,30.02,NW,309,8.7,13.9,27,0.00,CLR,,0.00,WeatherDisplay:10.37,2013-03-13 15:53:00,
2013-03-13 11:54:00,43.8,11.1,30.01,West,281,8.7,15.0,26,0.00,CLR,,0.00,WeatherDisplay:10.37,2013-03-13 15:54:00,
2013-03-13 11:55:00,44.0,10.4,30.01,SW,236,7.7,12.7,25,0.00,CLR,,0.00,WeatherDisplay:10.37,2013-03-13 15:55:00,
2013-03-13 11:58:00,44.2,11.4,30.01,WNW,301,10.1,17.3,26,0.00,CLR,,0.00,WeatherDisplay:10.37,2013-03-13 15:58:00,
2013-03-13 12:00:00,43.8,10.2,30.02,WNW,291,8.4,11.5,25,0.00,CLR,,0.00,WeatherDisplay:10.37,2013-03-13 16:00:00,
2013-03-13 12:03:00,44.0,10.4,30.02,West,261,11.8,21.9,25,0.00,CLR,,0.00,WeatherDisplay:10.37,2013-03-13 16:03:00,
2013-03-13 12:05:00,44.0,9.5,30.02,West,271,9.7,20.7,24,0.00,CLR,,0.00,WeatherDisplay:10.37,2013-03-13 16:05:00,
2013-03-13 12:08:00,43.9,10.3,30.01,NNW,329,5.5,15.0,25,0.00,CLR,,0.00,WeatherDisplay:10.37,2013-03-13 16:08:00,
2013-03-13 12:10:00,44.1,11.3,30.02,West,280,7.7,13.8,26,0.00,CLR,,0.00,WeatherDisplay:10.37,2013-03-13 16:10:00,
2013-03-13 12:13:00,44.3,9.7,30.02,WSW,256,8.7,17.3,24,0.00,CLR,,0.00,WeatherDisplay:10.37,2013-03-13 16:13:00,
2013-03-13 12:15:00,43.6,11.8,30.01,WSW,244,8.7,16.1,27,0.00,CLR,,0.00,WeatherDisplay:10.37,2013-03-13 16:15:00,
2013-03-13 12:18:00,43.6,11.8,30.01,West,261,8.6,17.3,27,0.00,CLR,,0.00,WeatherDisplay:10.37,2013-03-13 16:18:00,
2013-03-13 12:19:00,43.7,11.0,30.01,West,277,6.8,13.7,26,0.00,CLR,,0.00,WeatherDisplay:10.37,2013-03-13 16:19:00,
2013-03-13 12:20:00,43.8,11.1,30.01,SSW,208,6.7,13.8,26,0.00,CLR,,0.00,WeatherDisplay:10.37,2013-03-13 16:20:00,
2013-03-13 12:23:00,43.2,11.4,30.01,West,278,11.1,12.7,27,0.00,CLR,,0.00,WeatherDisplay:10.37,2013-03-13 16:23:00,
2013-03-13 12:24:00,43.5,12.5,30.01,WNW,298,10.1,15.0,28,0.00,CLR,,0.00,WeatherDisplay:10.37,2013-03-13 16:24:00,
2013-03-13 12:25:00,43.4,12.4,30.01,NW,304,7.0,9.2,28,0.00,CLR,,0.00,WeatherDisplay:10.37,2013-03-13 16:25:00,
2013-03-13 12:27:00,43.2,12.2,30.01,WNW,284,9.4,12.7,28,0.00,CLR,,0.00,WeatherDisplay:10.37,2013-03-13 16:27:00,
2013-03-13 12:28:00,43.1,11.3,30.01,NW,323,9.3,13.8,27,0.00,CLR,,0.00,WeatherDisplay:10.37,2013-03-13 16:28:00,
2013-03-13 12:29:00,43.1,10.5,30.01,WSW,244,11.3,23.0,26,0.00,CLR,,0.00,WeatherDisplay:10.37,2013-03-13 16:29:00,
2013-03-13 12:30:00,42.6,10.1,30.01,NW,306,11.3,16.1,26,0.00,CLR,,0.00,WeatherDisplay:10.37,2013-03-13 16:30:00,
2013-03-13 12:32:00,43.0,11.2,30.00,NW,323,10.0,16.1,27,0.00,CLR,,0.00,WeatherDisplay:10.37,2013-03-13 16:32:00,
2013-03-13 12:33:00,43.1,10.5,30.00,West,281,10.6,15.0,26,0.00,CLR,,0.00,WeatherDisplay:10.37,2013-03-13 16:33:00,
2013-03-13 12:34:00,43.1,10.5,30.00,WSW,250,8.3,16.1,26,0.00,CLR,,0.00,WeatherDisplay:10.37,2013-03-13 16:34:00,
2013-03-13 12:35:00,43.7,11.0,30.00,WSW,251,2.0,11.5,26,0.00,CLR,,0.00,WeatherDisplay:10.37,2013-03-13 16:35:00,
2013-03-13 12:38:00,43.5,8.1,30.00,WSW,246,9.1,14.2,23,0.00,CLR,,0.00,WeatherDisplay:10.37,2013-03-13 16:38:00,
2013-03-13 12:39:00,43.5,7.1,30.00,NW,311,12.5,17.3,22,0.00,CLR,,0.00,WeatherDisplay:10.37,2013-03-13 16:39:00,
2013-03-13 12:40:00,43.6,8.2,30.00,West,271,10.1,17.3,23,0.00,CLR,,0.00,WeatherDisplay:10.37,2013-03-13 16:40:00,
2013-03-13 12:43:00,43.9,7.4,30.00,West,280,5.6,10.4,22,0.00,CLR,,0.00,WeatherDisplay:10.37,2013-03-13 16:43:00,
2013-03-13 12:44:00,44.2,8.7,30.00,West,261,7.5,12.7,23,0.00,CLR,,0.00,WeatherDisplay:10.37,2013-03-13 16:44:00,
2013-03-13 12:45:00,44.0,8.5,30.00,West,275,10.8,15.0,23,0.00,CLR,,0.00,WeatherDisplay:10.37,2013-03-13 16:45:00,
2013-03-13 12:48:00,44.2,7.7,30.00,WSW,258,10.4,16.1,22,0.00,CLR,,0.00,WeatherDisplay:10.37,2013-03-13 16:48:00,
2013-03-13 12:49:00,45.0,10.3,30.00,WNW,285,4.5,13.8,24,0.00,CLR,,0.00,WeatherDisplay:10.37,2013-03-13 16:49:00,
2013-03-13 12:51:00,45.3,5.4,30.00,WSW,243,7.4,12.7,19,0.00,CLR,,0.00,WeatherDisplay:10.37,2013-03-13 16:51:00,
2013-03-13 12:53:00,45.4,4.3,30.00,West,272,4.8,13.8,18,0.00,CLR,,0.00,WeatherDisplay:10.37,2013-03-13 16:53:00,
2013-03-13 12:54:00,45.3,4.2,30.00,SSW,213,11.7,23.0,18,0.00,CLR,,0.00,WeatherDisplay:10.37,2013-03-13 16:54:00,
2013-03-13 12:57:00,45.0,4.0,30.00,WNW,295,11.8,18.6,18,0.00,CLR,,0.00,WeatherDisplay:10.37,2013-03-13 16:57:00,
2013-03-13 12:58:00,44.2,3.3,30.00,SW,229,13.5,21.9,18,0.00,CLR,,0.00,WeatherDisplay:10.37,2013-03-13 16:58:00,
2013-03-13 12:59:00,44.1,4.4,30.00,WSW,248,9.8,15.0,19,0.00,CLR,,0.00,WeatherDisplay:10.37,2013-03-13 16:59:00,
2013-03-13 13:02:00,42.7,8.4,30.01,WSW,256,15.0,26.5,24,0.00,CLR,,0.00,WeatherDisplay:10.37,2013-03-13 17:02:00,
2013-03-13 13:03:00,42.3,11.5,30.01,WNW,284,13.5,21.9,28,0.00,CLR,,0.00,WeatherDisplay:10.37,2013-03-13 17:03:00,
2013-03-13 13:04:00,42.0,12.8,30.01,WNW,287,14.6,21.9,30,0.00,CLR,,0.00,WeatherDisplay:10.37,2013-03-13 17:04:00,
2013-03-13 13:05:00,41.8,13.3,30.01,SW,227,12.6,21.9,31,0.00,CLR,,0.00,WeatherDisplay:10.37,2013-03-13 17:05:00,
2013-03-13 13:07:00,41.0,15.4,30.01,WNW,295,9.4,12.7,35,0.00,CLR,,0.00,WeatherDisplay:10.37,2013-03-13 17:07:00,
2013-03-13 13:08:00,41.0,16.0,30.01,North,350,9.2,13.8,36,0.00,CLR,,0.00,WeatherDisplay:10.37,2013-03-13 17:08:00,
2013-03-13 13:10:00,39.7,20.1,30.01,WNW,295,13.1,18.4,45,0.00,CLR,,0.00,WeatherDisplay:10.37,2013-03-13 17:10:00,
2013-03-13 13:13:00,39.9,19.7,30.01,West,277,7.4,13.8,44,0.00,CLR,,0.00,WeatherDisplay:10.37,2013-03-13 17:13:00,
2013-03-13 13:15:00,40.6,18.7,30.01,West,280,9.0,16.1,41,0.00,CLR,,0.00,WeatherDisplay:10.37,2013-03-13 17:15:00,
2013-03-13 13:18:00,41.2,16.2,30.01,WSW,253,8.9,16.1,36,0.00,CLR,,0.00,WeatherDisplay:10.37,2013-03-13 17:18:00,
2013-03-13 13:20:00,41.8,17.4,30.01,West,260,8.6,15.4,37,0.00,CLR,,0.00,WeatherDisplay:10.37,2013-03-13 17:20:00,
2013-03-13 13:23:00,41.1,17.4,30.01,WSW,257,7.3,12.7,38,0.00,CLR,,0.00,WeatherDisplay:10.37,2013-03-13 17:23:00,
2013-03-13 13:25:00,41.1,16.1,30.01,WSW,256,9.3,12.7,36,0.00,CLR,,0.00,WeatherDisplay:10.37,2013-03-13 17:25:00,
2013-03-13 13:28:00,41.3,15.0,30.02,WNW,292,15.7,27.6,34,0.00,CLR,,0.00,WeatherDisplay:10.37,2013-03-13 17:28:00,
2013-03-13 13:30:00,40.6,15.0,30.01,NNW,330,18.2,32.2,35,0.00,CLR,,0.00,WeatherDisplay:10.37,2013-03-13 17:30:00,
2013-03-13 13:33:00,38.5,17.4,30.02,NNW,344,18.5,25.3,42,0.00,CLR,,0.00,WeatherDisplay:10.37,2013-03-13 17:33:00,
2013-03-13 13:34:00,38.3,17.2,30.02,NNW,332,19.2,25.3,42,0.00,CLR,,0.00,WeatherDisplay:10.37,2013-03-13 17:34:00,
2013-03-13 13:35:00,38.2,20.2,30.02,NW,322,15.8,26.5,48,0.00,CLR,,0.00,WeatherDisplay:10.37,2013-03-13 17:35:00,
2013-03-13 13:38:00,37.8,20.8,30.02,WNW,302,15.9,25.3,50,0.00,CLR,,0.00,WeatherDisplay:10.37,2013-03-13 17:38:00,
2013-03-13 13:39:00,37.0,21.9,30.02,NNW,340,17.3,23.0,54,0.00,CLR,,0.00,WeatherDisplay:10.37,2013-03-13 17:39:00,
2013-03-13 13:40:00,38.0,26.9,30.02,NNW,343,14.5,19.6,64,0.00,CLR,,0.00,WeatherDisplay:10.37,2013-03-13 17:40:00,
2013-03-13 13:43:00,34.7,30.9,30.02,WNW,302,14.1,23.0,86,0.00,CLR,,0.00,WeatherDisplay:10.37,2013-03-13 17:43:00,
2013-03-13 13:44:00,34.2,30.2,30.02,NNE,13,12.9,19.6,85,0.00,CLR,,0.00,WeatherDisplay:10.37,2013-03-13 17:44:00,
2013-03-13 13:45:00,34.8,32.4,30.02,WSW,248,9.6,16.1,91,0.00,CLR,,0.00,WeatherDisplay:10.37,2013-03-13 17:45:00,
2013-03-13 13:48:00,35.5,29.9,30.02,NW,319,10.8,19.6,80,0.00,CLR,,0.00,WeatherDisplay:10.37,2013-03-13 17:48:00,
2013-03-13 13:50:00,36.3,30.7,30.02,WNW,289,10.6,15.0,80,0.00,CLR,,0.00,WeatherDisplay:10.37,2013-03-13 17:50:00,
2013-03-13 13:51:00,36.2,25.6,30.02,NNW,342,12.0,19.6,65,0.00,CLR,,0.00,WeatherDisplay:10.37,2013-03-13 17:51:00,
2013-03-13 13:53:00,37.1,23.3,30.02,North,353,7.8,15.5,57,0.00,CLR,,0.00,WeatherDisplay:10.37,2013-03-13 17:53:00,
2013-03-13 13:55:00,37.5,17.5,30.02,NNW,336,13.2,19.6,44,0.00,CLR,,0.00,WeatherDisplay:10.37,2013-03-13 17:55:00,
2013-03-13 13:58:00,38.8,17.6,30.02,NW,308,9.2,13.8,42,0.00,CLR,,0.00,WeatherDisplay:10.37,2013-03-13 17:58:00,
2013-03-13 13:59:00,39.0,16.7,30.02,WNW,296,8.8,16.1,40,0.00,CLR,,0.00,WeatherDisplay:10.37,2013-03-13 17:59:00,
2013-03-13 14:00:00,39.5,17.1,30.01,NNW,347,8.0,16.1,40,0.00,CLR,,0.00,WeatherDisplay:10.37,2013-03-13 18:00:00,
2013-03-13 14:03:00,40.1,15.2,30.01,WNW,291,11.6,15.0,36,0.00,CLR,,0.00,WeatherDisplay:10.37,2013-03-13 18:03:00,
2013-03-13 14:04:00,40.6,15.7,30.01,West,263,9.2,15.0,36,0.00,CLR,,0.00,WeatherDisplay:10.37,2013-03-13 18:04:00,
2013-03-13 14:05:00,40.5,14.3,30.01,NW,309,10.2,12.7,34,0.00,CLR,,0.00,WeatherDisplay:10.37,2013-03-13 18:05:00,
2013-03-13 14:06:00,40.8,15.2,30.01,NW,313,10.0,14.5,35,0.00,CLR,,0.00,WeatherDisplay:10.37,2013-03-13 18:06:00,
2013-03-13 14:08:00,41.2,14.2,30.01,WNW,299,6.9,13.4,33,0.00,CLR,,0.00,WeatherDisplay:10.37,2013-03-13 18:08:00,
2013-03-13 14:09:00,41.2,13.5,30.01,West,278,10.3,17.3,32,0.00,CLR,,0.00,WeatherDisplay:10.37,2013-03-13 18:09:00,
2013-03-13 14:10:00,41.5,13.8,30.01,WSW,253,11.5,12.7,32,0.00,CLR,,0.00,WeatherDisplay:10.37,2013-03-13 18:10:00,
2013-03-13 14:12:00,41.6,13.9,30.01,WSW,256,7.8,15.0,32,0.00,CLR,,0.00,WeatherDisplay:10.37,2013-03-13 18:12:00,
2013-03-13 14:13:00,42.1,15.7,30.01,NW,304,6.7,10.4,34,0.00,CLR,,0.00,WeatherDisplay:10.37,2013-03-13 18:13:00,
2013-03-13 14:14:00,42.0,13.5,30.01,NW,323,9.1,13.8,31,0.00,CLR,,0.00,WeatherDisplay:10.37,2013-03-13 18:14:00,
2013-03-13 14:16:00,42.5,13.9,30.00,WSW,241,7.9,11.5,31,0.00,CLR,,0.00,WeatherDisplay:10.37,2013-03-13 18:16:00,
2013-03-13 14:17:00,42.3,13.8,30.00,West,263,8.7,12.7,31,0.00,CLR,,0.00,WeatherDisplay:10.37,2013-03-13 18:17:00,
2013-03-13 14:18:00,42.3,14.5,30.00,West,260,8.4,15.0,32,0.00,CLR,,0.00,WeatherDisplay:10.37,2013-03-13 18:18:00,
2013-03-13 14:19:00,41.9,13.4,30.00,WSW,248,9.3,15.0,31,0.00,CLR,,0.00,WeatherDisplay:10.37,2013-03-13 18:19:00,
2013-03-13 14:22:00,41.3,13.6,30.00,WNW,295,8.3,15.0,32,0.00,CLR,,0.00,WeatherDisplay:10.37,2013-03-13 18:22:00,
2013-03-13 14:24:00,41.7,12.5,30.00,WNW,282,9.9,15.0,30,0.00,CLR,,0.00,WeatherDisplay:10.37,2013-03-13 18:24:00,
2013-03-13 14:27:00,42.3,10.6,30.00,West,270,10.1,19.6,27,0.00,CLR,,0.00,WeatherDisplay:10.37,2013-03-13 18:27:00,
2013-03-13 14:28:00,42.5,10.8,30.00,West,278,8.7,13.8,27,0.00,CLR,,0.00,WeatherDisplay:10.37,2013-03-13 18:28:00,
2013-03-13 14:29:00,43.0,10.4,30.00,West,280,9.5,11.5,26,0.00,CLR,,0.00,WeatherDisplay:10.37,2013-03-13 18:29:00,
2013-03-13 14:32:00,43.2,10.6,30.00,NW,313,7.6,12.7,26,0.00,CLR,,0.00,WeatherDisplay:10.37,2013-03-13 18:32:00,
2013-03-13 14:33:00,42.5,9.1,29.99,NW,308,10.3,13.8,25,0.00,CLR,,0.00,WeatherDisplay:10.37,2013-03-13 18:33:00,
2013-03-13 14:34:00,43.1,8.7,29.99,West,278,5.9,13.8,24,0.00,CLR,,0.00,WeatherDisplay:10.37,2013-03-13 18:34:00,
2013-03-13 14:35:00,43.2,9.7,29.99,West,260,3.5,12.7,25,0.00,CLR,,0.00,WeatherDisplay:10.37,2013-03-13 18:35:00,
2013-03-13 14:37:00,43.8,9.3,29.99,NNW,328,7.3,10.4,24,0.00,CLR,,0.00,WeatherDisplay:10.37,2013-03-13 18:37:00,
2013-03-13 14:39:00,44.1,9.5,29.99,NW,323,8.1,12.7,24,0.00,CLR,,0.00,WeatherDisplay:10.37,2013-03-13 18:39:00,
2013-03-13 14:40:00,44.1,7.6,29.99,NW,326,10.5,12.9,22,0.00,CLR,,0.00,WeatherDisplay:10.37,2013-03-13 18:40:00,
2013-03-13 14:42:00,44.2,7.7,29.99,NW,309,5.7,12.7,22,0.00,CLR,,0.00,WeatherDisplay:10.37,2013-03-13 18:42:00,
2013-03-13 14:44:00,44.0,7.5,29.99,NW,313,10.3,15.0,22,0.00,CLR,,0.00,WeatherDisplay:10.37,2013-03-13 18:44:00,
2013-03-13 14:45:00,43.4,6.0,29.99,WNW,287,13.0,18.4,21,0.00,CLR,,0.00,WeatherDisplay:10.37,2013-03-13 18:45:00,
2013-03-13 14:47:00,43.9,7.4,29.98,NNW,339,10.1,15.0,22,0.00,CLR,,0.00,WeatherDisplay:10.37,2013-03-13 18:47:00,
2013-03-13 14:49:00,44.3,7.8,29.98,West,280,11.4,15.0,22,0.00,CLR,,0.00,WeatherDisplay:10.37,2013-03-13 18:49:00,
2013-03-13 14:50:00,44.3,6.7,29.99,WSW,237,8.5,18.4,21,0.00,CLR,,0.00,WeatherDisplay:10.37,2013-03-13 18:50:00,
2013-03-13 14:52:00,43.5,6.1,29.99,NW,305,11.4,20.7,21,0.00,CLR,,0.00,WeatherDisplay:10.37,2013-03-13 18:52:00,
2013-03-13 14:54:00,43.4,4.9,29.98,WSW,237,8.5,12.7,20,0.00,CLR,,0.00,WeatherDisplay:10.37,2013-03-13 18:54:00,
2013-03-13 14:55:00,43.3,5.9,29.98,NW,315,5.3,9.2,21,0.00,CLR,,0.00,WeatherDisplay:10.37,2013-03-13 18:55:00,
2013-03-13 14:57:00,43.5,6.1,29.98,WNW,301,8.2,15.0,21,0.00,CLR,,0.00,WeatherDisplay:10.37,2013-03-13 18:57:00,
2013-03-13 14:59:00,42.9,2.2,29.98,West,272,14.7,19.6,18,0.00,CLR,,0.00,WeatherDisplay:10.37,2013-03-13 18:59:00,
2013-03-13 15:00:00,42.8,0.9,29.98,WNW,292,14.2,20.7,17,0.00,CLR,,0.00,WeatherDisplay:10.37,2013-03-13 19:00:00,
2013-03-13 15:02:00,43.6,0.3,29.98,NW,305,11.4,18.4,16,0.00,CLR,,0.00,WeatherDisplay:10.37,2013-03-13 19:02:00,
2013-03-13 15:04:00,43.7,2.9,29.98,WNW,299,11.1,16.1,18,0.00,CLR,,0.00,WeatherDisplay:10.37,2013-03-13 19:04:00,
2013-03-13 15:05:00,44.0,1.9,29.98,NW,312,10.6,17.3,17,0.00,CLR,,0.00,WeatherDisplay:10.37,2013-03-13 19:05:00,
2013-03-13 15:07:00,44.2,-0.6,29.98,WNW,294,10.6,13.8,15,0.00,CLR,,0.00,WeatherDisplay:10.37,2013-03-13 19:07:00,
2013-03-13 15:09:00,45.0,-1.4,29.98,WNW,282,8.5,14.3,14,0.00,CLR,,0.00,WeatherDisplay:10.37,2013-03-13 19:09:00,
2013-03-13 15:10:00,44.5,-3.4,29.98,NNW,332,13.7,20.7,13,0.00,CLR,,0.00,WeatherDisplay:10.37,2013-03-13 19:10:00,
2013-03-13 15:12:00,45.1,-1.4,29.98,NNW,335,8.4,16.1,14,0.00,CLR,,0.00,WeatherDisplay:10.37,2013-03-13 19:12:00,
2013-03-13 15:15:00,44.9,-3.1,29.98,NW,316,15.8,24.2,13,0.00,CLR,,0.00,WeatherDisplay:10.37,2013-03-13 19:15:00,
2013-03-13 15:17:00,44.8,-1.6,29.98,North,349,10.0,17.3,14,0.00,CLR,,0.00,WeatherDisplay:10.37,2013-03-13 19:17:00,
2013-03-13 15:20:00,45.2,0.2,29.98,NW,304,13.0,18.4,15,0.00,CLR,,0.00,WeatherDisplay:10.37,2013-03-13 19:20:00,
2013-03-13 15:21:00,44.9,-1.5,29.98,WNW,291,12.7,18.4,14,0.00,CLR,,0.00,WeatherDisplay:10.37,2013-03-13 19:21:00,
2013-03-13 15:22:00,45.3,1.7,29.98,WNW,298,14.8,18.4,16,0.00,CLR,,0.00,WeatherDisplay:10.37,2013-03-13 19:22:00,
2013-03-13 15:23:00,45.1,-4.6,29.98,NNW,343,16.3,20.7,12,0.00,CLR,,0.00,WeatherDisplay:10.37,2013-03-13 19:23:00,
2013-03-13 15:25:00,46.2,1.0,29.98,West,267,7.7,15.3,15,0.00,CLR,,0.00,WeatherDisplay:10.37,2013-03-13 19:25:00,
2013-03-13 15:26:00,45.1,-6.4,29.98,NW,326,12.5,18.4,11,0.00,CLR,,0.00,WeatherDisplay:10.37,2013-03-13 19:26:00,
2013-03-13 15:27:00,45.6,1.9,29.98,NW,305,10.9,18.4,16,0.00,CLR,,0.00,WeatherDisplay:10.37,2013-03-13 19:27:00,
2013-03-13 15:28:00,45.6,-2.5,29.98,WSW,256,11.2,21.4,13,0.00,CLR,,0.00,WeatherDisplay:10.37,2013-03-13 19:28:00,
2013-03-13 15:30:00,45.3,-2.8,29.98,WSW,247,17.5,28.8,13,0.00,CLR,,0.00,WeatherDisplay:10.37,2013-03-13 19:30:00,
2013-03-13 15:32:00,44.8,-4.8,29.98,West,267,13.2,23.0,12,0.00,CLR,,0.00,WeatherDisplay:10.37,2013-03-13 19:32:00,
2013-03-13 15:33:00,44.8,-3.2,29.98,WNW,296,10.3,18.4,13,0.00,CLR,,0.00,WeatherDisplay:10.37,2013-03-13 19:33:00,
2013-03-13 15:37:00,44.2,-2.1,29.98,WSW,240,14.5,21.9,14,0.00,CLR,,0.00,WeatherDisplay:10.37,2013-03-13 19:37:00,
2013-03-13 15:38:00,44.0,-2.2,29.98,WSW,244,10.8,23.0,14,0.00,CLR,,0.00,WeatherDisplay:10.37,2013-03-13 19:38:00,
2013-03-13 15:43:00,45.0,0.0,29.98,NW,326,7.0,13.8,15,0.00,CLR,,0.00,WeatherDisplay:10.37,2013-03-13 19:43:00,
2013-03-13 15:48:00,46.0,-3.9,29.98,West,268,11.5,17.3,12,0.00,CLR,,0.00,WeatherDisplay:10.37,2013-03-13 19:48:00,
2013-03-13 15:53:00,45.6,-1.0,29.99,NW,322,9.3,20.7,14,0.00,CLR,,0.00,WeatherDisplay:10.37,2013-03-13 19:53:00,
2013-03-13 15:58:00,44.5,1.0,29.99,WNW,295,15.3,25.3,16,0.00,CLR,,0.00,WeatherDisplay:10.37,2013-03-13 19:58:00,
2013-03-13 16:03:00,42.8,14.2,30.00,NW,325,8.2,16.1,31,0.00,CLR,,0.00,WeatherDisplay:10.37,2013-03-13 20:03:00,
2013-03-13 16:08:00,40.8,16.5,30.00,North,360,11.2,18.4,37,0.00,CLR,,0.00,WeatherDisplay:10.37,2013-03-13 20:08:00,
2013-03-13 16:09:00,40.6,16.3,30.00,North,7,9.4,18.4,37,0.00,CLR,,0.00,WeatherDisplay:10.37,2013-03-13 20:09:00,
2013-03-13 16:13:00,40.1,15.9,30.00,NW,325,10.3,16.1,37,0.00,CLR,,0.00,WeatherDisplay:10.37,2013-03-13 20:13:00,
2013-03-13 16:14:00,40.2,16.0,30.00,NW,311,8.9,15.0,37,0.00,CLR,,0.00,WeatherDisplay:10.37,2013-03-13 20:14:00,
2013-03-13 16:18:00,40.0,15.2,30.00,NW,319,14.2,23.3,36,0.00,CLR,,0.00,WeatherDisplay:10.37,2013-03-13 20:18:00,
2013-03-13 16:19:00,39.7,14.9,30.00,NW,326,16.2,19.6,36,0.00,CLR,,0.00,WeatherDisplay:10.37,2013-03-13 20:19:00,
2013-03-13 16:23:00,39.9,15.1,30.00,NW,323,11.9,20.7,36,0.00,CLR,,0.00,WeatherDisplay:10.37,2013-03-13 20:23:00,
2013-03-13 16:24:00,40.2,15.3,30.00,NW,325,10.4,20.7,36,0.00,CLR,,0.00,WeatherDisplay:10.37,2013-03-13 20:24:00,
2013-03-13 16:29:00,39.8,15.0,30.00,North,360,7.6,11.5,36,0.00,CLR,,0.00,WeatherDisplay:10.37,2013-03-13 20:29:00,
2013-03-13 16:34:00,40.8,13.2,30.00,North,3,7.5,10.4,32,0.00,CLR,,0.00,WeatherDisplay:10.37,2013-03-13 20:34:00,
2013-03-13 16:39:00,41.7,10.1,30.01,NW,311,9.9,11.5,27,0.00,CLR,,0.00,WeatherDisplay:10.37,2013-03-13 20:39:00,
2013-03-13 16:44:00,43.0,9.5,30.01,WNW,292,8.8,13.8,25,0.00,CLR,,0.00,WeatherDisplay:10.37,2013-03-13 20:44:00,
2013-03-13 16:49:00,42.5,-0.6,30.01,NW,323,9.3,21.9,16,0.00,CLR,,0.00,WeatherDisplay:10.37,2013-03-13 20:49:00,
2013-03-13 16:50:00,42.5,-2.0,30.01,WNW,298,11.1,17.3,15,0.00,CLR,,0.00,WeatherDisplay:10.37,2013-03-13 20:50:00,
2013-03-13 16:54:00,41.9,-2.5,30.01,West,264,7.8,17.3,15,0.00,CLR,,0.00,WeatherDisplay:10.37,2013-03-13 20:54:00,
2013-03-13 16:55:00,42.3,-3.6,30.01,NW,306,10.2,15.9,14,0.00,CLR,,0.00,WeatherDisplay:10.37,2013-03-13 20:55:00,
2013-03-13 16:59:00,42.2,-3.7,30.01,WSW,244,8.6,15.0,14,0.00,CLR,,0.00,WeatherDisplay:10.37,2013-03-13 20:59:00,
2013-03-13 17:00:00,42.3,-5.2,30.01,West,274,9.9,16.4,13,0.00,CLR,,0.00,WeatherDisplay:10.37,2013-03-13 21:00:00,
2013-03-13 17:04:00,42.1,-2.3,30.01,West,281,10.3,18.4,15,0.00,CLR,,0.00,WeatherDisplay:10.37,2013-03-13 21:04:00,
2013-03-13 17:05:00,42.2,-2.2,30.01,WNW,291,9.9,18.4,15,0.00,CLR,,0.00,WeatherDisplay:10.37,2013-03-13 21:05:00,
2013-03-13 17:09:00,41.8,-2.6,30.02,WSW,240,11.0,20.7,15,0.00,CLR,,0.00,WeatherDisplay:10.37,2013-03-13 21:09:00,
2013-03-13 17:10:00,42.3,-2.2,30.02,NW,313,8.7,20.7,15,0.00,CLR,,0.00,WeatherDisplay:10.37,2013-03-13 21:10:00,
2013-03-13 17:14:00,41.8,-1.2,30.02,NNW,337,14.8,19.6,16,0.00,CLR,,0.00,WeatherDisplay:10.37,2013-03-13 21:14:00,
2013-03-13 17:15:00,41.4,-1.5,30.02,WNW,302,13.9,19.6,16,0.00,CLR,,0.00,WeatherDisplay:10.37,2013-03-13 21:15:00,
2013-03-13 17:16:00,41.9,1.4,30.02,WNW,296,10.6,19.6,18,0.00,CLR,,0.00,WeatherDisplay:10.37,2013-03-13 21:16:00,
2013-03-13 17:20:00,42.4,-0.7,30.02,NW,312,14.2,27.6,16,0.00,CLR,,0.00,WeatherDisplay:10.37,2013-03-13 21:20:00,
2013-03-13 17:21:00,42.0,-1.0,30.03,NW,306,11.1,27.6,16,0.00,CLR,,0.00,WeatherDisplay:10.37,2013-03-13 21:21:00,
2013-03-13 17:25:00,42.1,0.3,30.03,SW,227,10.8,18.4,17,0.00,CLR,,0.00,WeatherDisplay:10.37,2013-03-13 21:25:00,
2013-03-13 17:27:00,42.7,-0.5,30.03,WNW,299,8.7,12.7,16,0.00,CLR,,0.00,WeatherDisplay:10.37,2013-03-13 21:27:00,
2013-03-13 17:30:00,42.2,0.4,30.03,WNW,295,8.8,23.0,17,0.00,CLR,,0.00,WeatherDisplay:10.37,2013-03-13 21:30:00,
2013-03-13 17:31:00,42.0,0.3,30.03,WNW,298,5.2,10.4,17,0.00,CLR,,0.00,WeatherDisplay:10.37,2013-03-13 21:31:00,
2013-03-13 17:32:00,42.2,0.4,30.03,NW,313,9.1,18.0,17,0.00,CLR,,0.00,WeatherDisplay:10.37,2013-03-13 21:32:00,
2013-03-13 17:35:00,41.0,-0.6,30.03,West,280,15.4,18.4,17,0.00,CLR,,0.00,WeatherDisplay:10.37,2013-03-13 21:35:00,
2013-03-13 17:36:00,41.0,-0.6,30.03,WNW,289,14.7,26.5,17,0.00,CLR,,0.00,WeatherDisplay:10.37,2013-03-13 21:36:00,
2013-03-13 17:37:00,40.6,-0.9,30.04,WNW,296,12.8,19.6,17,0.00,CLR,,0.00,WeatherDisplay:10.37,2013-03-13 21:37:00,
2013-03-13 17:40:00,40.7,1.6,30.04,NW,309,12.1,20.7,19,0.00,CLR,,0.00,WeatherDisplay:10.37,2013-03-13 21:40:00,
2013-03-13 17:41:00,40.6,1.5,30.04,NW,304,10.3,20.7,19,0.00,CLR,,0.00,WeatherDisplay:10.37,2013-03-13 21:41:00,
2013-03-13 17:42:00,40.6,3.6,30.04,NW,316,14.1,23.0,21,0.00,CLR,,0.00,WeatherDisplay:10.37,2013-03-13 21:42:00,
2013-03-13 17:46:00,38.4,11.8,30.05,NNW,336,13.6,20.7,33,0.00,CLR,,0.00,WeatherDisplay:10.37,2013-03-13 21:46:00,
2013-03-13 17:47:00,38.3,13.6,30.05,WNW,284,12.1,21.9,36,0.00,CLR,,0.00,WeatherDisplay:10.37,2013-03-13 21:47:00,
2013-03-13 17:51:00,36.7,15.2,30.05,NNW,340,13.6,18.4,41,0.00,CLR,,0.00,WeatherDisplay:10.37,2013-03-13 21:51:00,
2013-03-13 17:52:00,37.0,14.3,30.05,WNW,296,15.0,23.0,39,0.00,CLR,,0.00,WeatherDisplay:10.37,2013-03-13 21:52:00,
2013-03-13 17:57:00,37.3,10.8,30.05,NNW,339,13.4,20.7,33,0.00,CLR,,0.00,WeatherDisplay:10.37,2013-03-13 21:57:00,
2013-03-13 17:58:00,37.9,10.6,30.05,WNW,298,9.2,18.5,32,0.00,CLR,,0.00,WeatherDisplay:10.37,2013-03-13 21:58:00,
2013-03-13 18:02:00,37.8,9.1,30.05,NNW,342,14.5,20.7,30,0.00,CLR,,0.00,WeatherDisplay:10.37,2013-03-13 22:02:00,
2013-03-13 18:03:00,38.2,10.2,30.05,North,353,11.3,19.6,31,0.00,CLR,,0.00,WeatherDisplay:10.37,2013-03-13 22:03:00,
2013-03-13 18:08:00,38.7,7.5,30.05,NW,325,9.9,13.8,27,0.00,CLR,,0.00,WeatherDisplay:10.37,2013-03-13 22:08:00,
2013-03-13 18:13:00,38.2,7.1,30.05,North,349,14.7,21.9,27,0.00,CLR,,0.00,WeatherDisplay:10.37,2013-03-13 22:13:00,
2013-03-13 18:18:00,37.8,5.9,30.06,NW,311,12.9,20.7,26,0.00,CLR,,0.00,WeatherDisplay:10.37,2013-03-13 22:18:00,
2013-03-13 18:19:00,38.0,6.1,30.06,NNW,328,10.3,18.4,26,0.00,CLR,,0.00,WeatherDisplay:10.37,2013-03-13 22:19:00,
2013-03-13 18:23:00,37.3,2.8,30.06,NW,309,13.9,25.3,23,0.00,CLR,,0.00,WeatherDisplay:10.37,2013-03-13 22:23:00,
2013-03-13 18:24:00,37.6,3.1,30.06,NNW,336,13.1,18.4,23,0.00,CLR,,0.00,WeatherDisplay:10.37,2013-03-13 22:24:00,
2013-03-13 18:29:00,38.3,4.6,30.06,NNW,332,9.5,13.8,24,0.00,CLR,,0.00,WeatherDisplay:10.37,2013-03-13 22:29:00,
2013-03-13 18:34:00,38.2,4.5,30.06,NW,315,13.2,18.4,24,0.00,CLR,,0.00,WeatherDisplay:10.37,2013-03-13 22:34:00,
2013-03-13 18:39:00,38.1,1.5,30.06,NW,316,15.0,20.7,21,0.00,CLR,,0.00,WeatherDisplay:10.37,2013-03-13 22:39:00,
2013-03-13 18:40:00,38.0,1.5,30.06,NW,308,13.9,19.6,21,0.00,CLR,,0.00,WeatherDisplay:10.37,2013-03-13 22:40:00,
2013-03-13 18:44:00,36.6,10.2,30.07,WNW,285,17.2,32.2,33,0.00,CLR,,0.00,WeatherDisplay:10.37,2013-03-13 22:44:00,
2013-03-13 18:45:00,36.5,10.7,30.07,West,280,14.5,20.7,34,0.00,CLR,,0.00,WeatherDisplay:10.37,2013-03-13 22:45:00,
2013-03-13 18:49:00,36.9,11.1,30.07,West,270,8.7,15.0,34,0.00,CLR,,0.00,WeatherDisplay:10.37,2013-03-13 22:49:00,
2013-03-13 18:50:00,36.6,10.2,30.07,NW,316,9.2,12.7,33,0.00,CLR,,0.00,WeatherDisplay:10.37,2013-03-13 22:50:00,
2013-03-13 18:54:00,37.4,10.9,30.07,NW,319,10.9,15.0,33,0.00,CLR,,0.00,WeatherDisplay:10.37,2013-03-13 22:54:00,
2013-03-13 18:55:00,37.1,10.6,30.07,North,4,7.7,17.3,33,0.00,CLR,,0.00,WeatherDisplay:10.37,2013-03-13 22:55:00,
2013-03-13 18:59:00,37.3,11.5,30.07,West,278,8.7,15.0,34,0.00,CLR,,0.00,WeatherDisplay:10.37,2013-03-13 22:59:00,
2013-03-13 19:00:00,37.2,10.7,30.07,WNW,295,9.2,15.0,33,0.00,CLR,,0.00,WeatherDisplay:10.37,2013-03-13 23:00:00,
2013-03-13 19:04:00,36.5,11.4,30.08,WNW,302,8.5,14.3,35,0.00,CLR,,0.00,WeatherDisplay:10.37,2013-03-13 23:04:00,
2013-03-13 19:05:00,35.9,10.9,30.08,NW,304,10.0,15.0,35,0.00,CLR,,0.00,WeatherDisplay:10.37,2013-03-13 23:05:00,
2013-03-13 19:09:00,35.6,11.2,30.08,NNW,329,7.2,12.7,36,0.00,CLR,,0.00,WeatherDisplay:10.37,2013-03-13 23:09:00,
2013-03-13 19:10:00,35.6,11.2,30.08,NW,304,7.7,11.5,36,0.00,CLR,,0.00,WeatherDisplay:10.37,2013-03-13 23:10:00,
2013-03-13 19:14:00,35.4,8.4,30.08,NNW,336,7.5,20.7,32,0.00,CLR,,0.00,WeatherDisplay:10.37,2013-03-13 23:14:00,
2013-03-13 19:15:00,34.9,6.6,30.08,WNW,301,9.5,19.6,30,0.00,CLR,,0.00,WeatherDisplay:10.37,2013-03-13 23:15:00,
2013-03-13 19:19:00,34.6,3.2,30.08,WNW,302,10.3,21.9,26,0.00,CLR,,0.00,WeatherDisplay:10.37,2013-03-13 23:19:00,
2013-03-13 19:20:00,34.3,2.1,30.08,West,268,10.7,17.3,25,0.00,CLR,,0.00,WeatherDisplay:10.37,2013-03-13 23:20:00,
2013-03-13 19:24:00,35.1,2.7,30.08,West,275,12.1,21.9,25,0.00,CLR,,0.00,WeatherDisplay:10.37,2013-03-13 23:24:00,
2013-03-13 19:25:00,34.4,2.1,30.08,WNW,294,8.3,16.1,25,0.00,CLR,,0.00,WeatherDisplay:10.37,2013-03-13 23:25:00,
2013-03-13 19:29:00,33.9,1.7,30.08,WNW,302,10.5,21.9,25,0.00,CLR,,0.00,WeatherDisplay:10.37,2013-03-13 23:29:00,
2013-03-13 19:30:00,34.8,2.5,30.08,NNW,330,11.5,18.1,25,0.00,CLR,,0.00,WeatherDisplay:10.37,2013-03-13 23:30:00,
2013-03-13 19:31:00,34.5,1.4,30.08,NW,313,12.9,17.3,24,0.00,CLR,,0.00,WeatherDisplay:10.37,2013-03-13 23:31:00,
2013-03-13 19:32:00,34.5,2.2,30.08,WNW,302,11.8,19.6,25,0.00,CLR,,0.00,WeatherDisplay:10.37,2013-03-13 23:32:00,
2013-03-13 19:34:00,34.3,2.1,30.08,West,267,12.2,23.0,25,0.00,CLR,,0.00,WeatherDisplay:10.37,2013-03-13 23:34:00,
2013-03-13 19:35:00,35.5,3.9,30.08,WNW,289,8.6,15.0,26,0.00,CLR,,0.00,WeatherDisplay:10.37,2013-03-13 23:35:00,
2013-03-13 19:36:00,35.5,3.9,30.08,NW,326,8.4,15.0,26,0.00,CLR,,0.00,WeatherDisplay:10.37,2013-03-13 23:36:00,
2013-03-13 19:37:00,35.0,2.7,30.08,NW,305,9.8,15.0,25,0.00,CLR,,0.00,WeatherDisplay:10.37,2013-03-13 23:37:00,
2013-03-13 19:39:00,34.4,3.0,30.08,WNW,296,8.5,17.3,26,0.00,CLR,,0.00,WeatherDisplay:10.37,2013-03-13 23:39:00,
2013-03-13 19:40:00,35.4,3.9,30.08,NW,323,8.0,12.7,26,0.00,CLR,,0.00,WeatherDisplay:10.37,2013-03-13 23:40:00,
2013-03-13 19:42:00,35.2,3.7,30.08,NW,313,10.7,16.1,26,0.00,CLR,,0.00,WeatherDisplay:10.37,2013-03-13 23:42:00,
2013-03-13 19:44:00,33.9,1.7,30.09,WNW,285,12.9,18.4,25,0.00,CLR,,0.00,WeatherDisplay:10.37,2013-03-13 23:44:00,
2013-03-13 19:45:00,35.3,2.0,30.08,WNW,296,10.4,18.4,24,0.00,CLR,,0.00,WeatherDisplay:10.37,2013-03-13 23:45:00,
2013-03-13 19:47:00,35.3,2.9,30.09,WNW,294,10.0,19.6,25,0.00,CLR,,0.00,WeatherDisplay:10.37,2013-03-13 23:47:00,
2013-03-13 19:49:00,35.3,2.9,30.09,WNW,295,7.4,11.5,25,0.00,CLR,,0.00,WeatherDisplay:10.37,2013-03-13 23:49:00,
2013-03-13 19:51:00,35.3,2.9,30.09,WNW,285,6.4,11.5,25,0.00,CLR,,0.00,WeatherDisplay:10.37,2013-03-13 23:51:00,
2013-03-13 19:52:00,35.1,2.7,30.09,WNW,295,6.5,10.4,25,0.00,CLR,,0.00,WeatherDisplay:10.37,2013-03-13 23:52:00,
2013-03-13 19:55:00,35.4,3.0,30.09,NNW,337,7.8,11.5,25,0.00,CLR,,0.00,WeatherDisplay:10.37,2013-03-13 23:55:00,
2013-03-13 19:56:00,34.6,2.3,30.09,NNW,332,6.0,12.7,25,0.00,CLR,,0.00,WeatherDisplay:10.37,2013-03-13 23:56:00,
2013-03-13 19:57:00,35.1,2.7,30.09,NW,312,5.3,10.9,25,0.00,CLR,,0.00,WeatherDisplay:10.37,2013-03-13 23:57:00,
2013-03-13 19:58:00,34.8,2.5,30.09,West,278,7.1,11.5,25,0.00,CLR,,0.00,WeatherDisplay:10.37,2013-03-13 23:58:00,
2013-03-13 20:00:00,35.1,0.9,30.09,NW,306,10.4,13.8,23,0.00,CLR,,0.00,WeatherDisplay:10.37,2013-03-14 00:00:00,
2013-03-13 20:02:00,34.9,0.8,30.10,NW,304,8.8,13.2,23,0.00,CLR,,0.00,WeatherDisplay:10.37,2013-03-14 00:02:00,
2013-03-13 20:03:00,35.4,1.2,30.10,NW,316,8.7,13.8,23,0.00,CLR,,0.00,WeatherDisplay:10.37,2013-03-14 00:03:00,
2013-03-13 20:05:00,35.5,1.3,30.10,West,275,7.4,10.4,23,0.00,CLR,,0.00,WeatherDisplay:10.37,2013-03-14 00:05:00,
2013-03-13 20:07:00,34.6,-0.4,30.10,NW,306,11.1,18.4,22,0.00,CLR,,0.00,WeatherDisplay:10.37,2013-03-14 00:07:00,
2013-03-13 20:08:00,34.0,-0.9,30.10,WNW,295,6.3,16.1,22,0.00,CLR,,0.00,WeatherDisplay:10.37,2013-03-14 00:08:00,
2013-03-13 20:10:00,33.7,-1.2,30.10,NW,304,10.1,16.1,22,0.00,CLR,,0.00,WeatherDisplay:10.37,2013-03-14 00:10:00,
2013-03-13 20:12:00,35.2,0.1,30.10,NW,305,10.6,15.0,22,0.00,CLR,,0.00,WeatherDisplay:10.37,2013-03-14 00:12:00,
2013-03-13 20:13:00,35.2,0.1,30.10,WNW,299,11.7,17.3,22,0.00,CLR,,0.00,WeatherDisplay:10.37,2013-03-14 00:13:00,
2013-03-13 20:15:00,35.0,-0.1,30.10,West,270,9.5,17.3,22,0.00,CLR,,0.00,WeatherDisplay:10.37,2013-03-14 00:15:00,
2013-03-13 20:17:00,33.5,-1.4,30.10,WSW,258,9.1,16.7,22,0.00,CLR,,0.00,WeatherDisplay:10.37,2013-03-14 00:17:00,
2013-03-13 20:18:00,33.7,-1.2,30.10,WSW,247,11.6,18.4,22,0.00,CLR,,0.00,WeatherDisplay:10.37,2013-03-14 00:18:00,
2013-03-13 20:20:00,34.0,-1.9,30.10,NNW,332,14.2,23.0,21,0.00,CLR,,0.00,WeatherDisplay:10.37,2013-03-14 00:20:00,
2013-03-13 20:23:00,33.2,-3.6,30.10,West,268,12.9,16.1,20,0.00,CLR,,0.00,WeatherDisplay:10.37,2013-03-14 00:23:00,
2013-03-13 20:25:00,34.1,-3.9,30.10,West,274,16.5,24.2,19,0.00,CLR,,0.00,WeatherDisplay:10.37,2013-03-14 00:25:00,
2013-03-13 20:28:00,34.7,-1.3,30.11,NW,312,10.7,15.0,21,0.00,CLR,,0.00,WeatherDisplay:10.37,2013-03-14 00:28:00,
2013-03-13 20:30:00,34.4,-2.6,30.11,NW,313,11.7,19.6,20,0.00,CLR,,0.00,WeatherDisplay:10.37,2013-03-14 00:30:00,
2013-03-13 20:33:00,31.7,-3.9,30.11,WNW,299,11.3,15.6,21,0.00,CLR,,0.00,WeatherDisplay:10.37,2013-03-14 00:33:00,
2013-03-13 20:35:00,34.9,-0.2,30.10,North,360,7.4,10.4,22,0.00,CLR,,0.00,WeatherDisplay:10.37,2013-03-14 00:35:00,
2013-03-13 20:38:00,34.2,-1.8,30.10,NW,309,10.1,19.6,21,0.00,CLR,,0.00,WeatherDisplay:10.37,2013-03-14 00:38:00,
2013-03-13 20:41:00,34.4,0.4,30.10,WNW,289,4.1,13.8,23,0.00,CLR,,0.00,WeatherDisplay:10.37,2013-03-14 00:41:00,
2013-03-13 20:43:00,34.4,-0.6,30.11,WNW,299,13.9,21.9,22,0.00,CLR,,0.00,WeatherDisplay:10.37,2013-03-14 00:43:00,
2013-03-13 20:44:00,34.4,-0.6,30.11,WNW,296,10.3,21.9,22,0.00,CLR,,0.00,WeatherDisplay:10.37,2013-03-14 00:44:00,
2013-03-13 20:46:00,34.4,-0.6,30.11,WNW,294,8.8,16.1,22,0.00,CLR,,0.00,WeatherDisplay:10.37,2013-03-14 00:46:00,
2013-03-13 20:49:00,35.0,-0.1,30.11,NW,309,9.9,11.3,22,0.00,CLR,,0.00,WeatherDisplay:10.37,2013-03-14 00:49:00,
2013-03-13 20:52:00,34.0,-1.9,30.11,West,277,12.7,17.3,21,0.00,CLR,,0.00,WeatherDisplay:10.37,2013-03-14 00:52:00,
2013-03-13 20:54:00,34.1,-0.8,30.11,NW,325,9.7,19.6,22,0.00,CLR,,0.00,WeatherDisplay:10.37,2013-03-14 00:54:00,
2013-03-13 20:57:00,33.7,2.4,30.11,NNW,332,10.0,15.0,26,0.00,CLR,,0.00,WeatherDisplay:10.37,2013-03-14 00:57:00,
2013-03-13 20:59:00,33.7,2.4,30.11,WNW,288,10.8,17.3,26,0.00,CLR,,0.00,WeatherDisplay:10.37,2013-03-14 00:59:00,
2013-03-13 21:02:00,33.2,1.1,30.11,West,268,7.7,15.0,25,0.00,CLR,,0.00,WeatherDisplay:10.37,2013-03-14 01:02:00,
2013-03-13 21:04:00,33.1,0.2,30.11,WNW,301,9.4,15.0,24,0.00,CLR,,0.00,WeatherDisplay:10.37,2013-03-14 01:04:00,
2013-03-13 21:07:00,33.2,-2.6,30.11,WNW,285,11.8,18.4,21,0.00,CLR,,0.00,WeatherDisplay:10.37,2013-03-14 01:07:00,
2013-03-13 21:09:00,31.8,-3.8,30.12,NW,316,10.3,18.4,21,0.00,CLR,,0.00,WeatherDisplay:10.37,2013-03-14 01:09:00,
2013-03-13 21:10:00,32.2,-3.4,30.12,WNW,294,10.6,18.4,21,0.00,CLR,,0.00,WeatherDisplay:10.37,2013-03-14 01:10:00,
2013-03-13 21:12:00,32.2,-3.4,30.12,WNW,282,11.6,17.3,21,0.00,CLR,,0.00,WeatherDisplay:10.37,2013-03-14 01:12:00,
2013-03-13 21:14:00,31.9,-2.7,30.11,WNW,302,8.8,13.8,22,0.00,CLR,,0.00,WeatherDisplay:10.37,2013-03-14 01:14:00,
2013-03-13 21:15:00,31.9,-3.7,30.11,WNW,299,7.4,13.8,21,0.00,CLR,,0.00,WeatherDisplay:10.37,2013-03-14 01:15:00,
2013-03-13 21:17:00,32.0,-2.6,30.12,North,360,9.1,19.6,22,0.00,CLR,,0.00,WeatherDisplay:10.37,2013-03-14 01:17:00,
2013-03-13 21:19:00,32.0,-3.6,30.12,NW,313,12.7,16.1,21,0.00,CLR,,0.00,WeatherDisplay:10.37,2013-03-14 01:19:00,
2013-03-13 21:20:00,32.0,-3.6,30.12,NW,313,10.9,16.1,21,0.00,CLR,,0.00,WeatherDisplay:10.37,2013-03-14 01:20:00,
2013-03-13 21:22:00,32.0,-2.6,30.12,WNW,294,5.7,10.4,22,0.00,CLR,,0.00,WeatherDisplay:10.37,2013-03-14 01:22:00,
2013-03-13 21:24:00,32.4,-2.3,30.12,West,274,6.5,15.0,22,0.00,CLR,,0.00,WeatherDisplay:10.37,2013-03-14 01:24:00,
2013-03-13 21:25:00,32.4,-2.3,30.12,West,280,6.4,15.0,22,0.00,CLR,,0.00,WeatherDisplay:10.37,2013-03-14 01:25:00,
2013-03-13 21:28:00,32.4,-3.3,30.12,West,278,12.9,19.6,21,0.00,CLR,,0.00,WeatherDisplay:10.37,2013-03-14 01:28:00,
2013-03-13 21:29:00,32.4,-3.3,30.12,WNW,284,10.8,15.0,21,0.00,CLR,,0.00,WeatherDisplay:10.37,2013-03-14 01:29:00,
2013-03-13 21:30:00,32.4,-3.3,30.12,WNW,289,10.8,15.0,21,0.00,CLR,,0.00,WeatherDisplay:10.37,2013-03-14 01:30:00,
2013-03-13 21:33:00,32.9,-2.8,30.12,WNW,288,6.2,10.4,21,0.00,CLR,,0.00,WeatherDisplay:10.37,2013-03-14 01:33:00,
2013-03-13 21:35:00,32.0,-3.6,30.12,WNW,292,8.7,10.4,21,0.00,CLR,,0.00,WeatherDisplay:10.37,2013-03-14 01:35:00,
2013-03-13 21:38:00,32.8,-2.9,30.12,NW,309,9.5,12.7,21,0.00,CLR,,0.00,WeatherDisplay:10.37,2013-03-14 01:38:00,
2013-03-13 21:40:00,32.8,-2.0,30.12,NNW,332,5.1,8.1,22,0.00,CLR,,0.00,WeatherDisplay:10.37,2013-03-14 01:40:00,
2013-03-13 21:43:00,33.3,-2.5,30.13,WNW,284,10.2,17.3,21,0.00,CLR,,0.00,WeatherDisplay:10.37,2013-03-14 01:43:00,
2013-03-13 21:45:00,33.0,-2.8,30.13,NW,306,11.2,16.1,21,0.00,CLR,,0.00,WeatherDisplay:10.37,2013-03-14 01:45:00,
2013-03-13 21:48:00,32.6,-3.1,30.13,WNW,284,10.1,15.0,21,0.00,CLR,,0.00,WeatherDisplay:10.37,2013-03-14 01:48:00,
2013-03-13 21:50:00,32.6,-3.1,30.13,WNW,287,9.0,13.8,21,0.00,CLR,,0.00,WeatherDisplay:10.37,2013-03-14 01:50:00,
2013-03-13 21:53:00,32.4,-2.3,30.13,NW,308,4.3,10.4,22,0.00,CLR,,0.00,WeatherDisplay:10.37,2013-03-14 01:53:00,
2013-03-13 21:55:00,31.5,-2.1,30.13,NW,306,4.2,6.9,23,0.00,CLR,,0.00,WeatherDisplay:10.37,2013-03-14 01:55:00,
2013-03-13 21:59:00,32.4,-0.4,30.13,West,268,9.4,17.3,24,0.00,CLR,,0.00,WeatherDisplay:10.37,2013-03-14 01:59:00,
2013-03-13 22:00:00,33.1,0.2,30.13,NW,316,9.6,16.7,24,0.00,CLR,,0.00,WeatherDisplay:10.37,2013-03-14 02:00:00,
2013-03-13 22:04:00,32.4,0.4,30.13,WNW,295,7.1,12.7,25,0.00,CLR,,0.00,WeatherDisplay:10.37,2013-03-14 02:04:00,
2013-03-13 22:05:00,32.4,0.4,30.13,WNW,296,8.1,12.7,25,0.00,CLR,,0.00,WeatherDisplay:10.37,2013-03-14 02:05:00,
2013-03-13 22:09:00,31.9,2.4,30.13,NW,313,9.0,13.8,28,0.00,CLR,,0.00,WeatherDisplay:10.37,2013-03-14 02:09:00,
2013-03-13 22:10:00,32.1,2.6,30.13,NW,322,10.1,15.0,28,0.00,CLR,,0.00,WeatherDisplay:10.37,2013-03-14 02:10:00,
2013-03-13 22:14:00,31.6,2.9,30.13,WNW,294,11.6,18.4,29,0.00,CLR,,0.00,WeatherDisplay:10.37,2013-03-14 02:14:00,
2013-03-13 22:15:00,31.6,3.7,30.13,WNW,296,10.7,16.1,30,0.00,CLR,,0.00,WeatherDisplay:10.37,2013-03-14 02:15:00,
2013-03-13 22:19:00,31.7,3.0,30.13,NW,316,8.9,15.0,29,0.00,CLR,,0.00,WeatherDisplay:10.37,2013-03-14 02:19:00,
2013-03-13 22:20:00,31.7,3.0,30.13,WNW,292,7.2,11.5,29,0.00,CLR,,0.00,WeatherDisplay:10.37,2013-03-14 02:20:00,
2013-03-13 22:21:00,31.7,3.0,30.13,WNW,288,6.4,11.5,29,0.00,CLR,,0.00,WeatherDisplay:10.37,2013-03-14 02:21:00,
2013-03-13 22:24:00,31.7,3.0,30.13,NNW,335,8.1,10.4,29,0.00,CLR,,0.00,WeatherDisplay:10.37,2013-03-14 02:24:00,
2013-03-13 22:25:00,32.2,2.7,30.13,NNW,330,9.2,13.8,28,0.00,CLR,,0.00,WeatherDisplay:10.37,2013-03-14 02:25:00,
2013-03-13 22:26:00,31.5,2.1,30.13,North,359,9.0,13.8,28,0.00,CLR,,0.00,WeatherDisplay:10.37,2013-03-14 02:26:00,
2013-03-13 22:29:00,32.3,2.8,30.13,NW,304,10.7,15.0,28,0.00,CLR,,0.00,WeatherDisplay:10.37,2013-03-14 02:29:00,
2013-03-13 22:30:00,32.8,3.2,30.13,WNW,289,8.6,12.7,28,0.00,CLR,,0.00,WeatherDisplay:10.37,2013-03-14 02:30:00,
2013-03-13 22:31:00,32.8,3.2,30.13,NW,305,8.6,12.7,28,0.00,CLR,,0.00,WeatherDisplay:10.37,2013-03-14 02:31:00,
2013-03-13 22:32:00,32.8,3.2,30.13,NW,322,10.1,15.8,28,0.00,CLR,,0.00,WeatherDisplay:10.37,2013-03-14 02:32:00,
2013-03-13 22:34:00,32.8,3.2,30.13,NW,319,9.4,15.0,28,0.00,CLR,,0.00,WeatherDisplay:10.37,2013-03-14 02:34:00,
2013-03-13 22:36:00,31.5,2.1,30.13,NW,322,11.8,16.1,28,0.00,CLR,,0.00,WeatherDisplay:10.37,2013-03-14 02:36:00,
2013-03-13 22:37:00,31.5,2.1,30.13,NNW,330,10.9,15.0,28,0.00,CLR,,0.00,WeatherDisplay:10.37,2013-03-14 02:37:00,
2013-03-13 22:39:00,32.2,3.4,30.13,North,352,10.0,15.0,29,0.00,CLR,,0.00,WeatherDisplay:10.37,2013-03-14 02:39:00,
2013-03-13 22:41:00,32.2,3.4,30.13,NW,325,10.4,15.1,29,0.00,CLR,,0.00,WeatherDisplay:10.37,2013-03-14 02:41:00,
2013-03-13 22:42:00,32.2,3.4,30.13,WNW,301,12.0,18.4,29,0.00,CLR,,0.00,WeatherDisplay:10.37,2013-03-14 02:42:00,
2013-03-13 22:44:00,32.2,4.2,30.13,NW,325,9.8,15.0,30,0.00,CLR,,0.00,WeatherDisplay:10.37,2013-03-14 02:44:00,
2013-03-13 22:46:00,32.2,4.2,30.13,NW,325,10.1,12.7,30,0.00,CLR,,0.00,WeatherDisplay:10.37,2013-03-14 02:46:00,
2013-03-13 22:47:00,32.2,4.2,30.13,NNW,330,14.2,15.0,30,0.00,CLR,,0.00,WeatherDisplay:10.37,2013-03-14 02:47:00,
2013-03-13 22:49:00,31.9,4.6,30.14,NNW,337,9.4,15.0,31,0.00,CLR,,0.00,WeatherDisplay:10.37,2013-03-14 02:49:00,
2013-03-13 22:51:00,31.9,4.6,30.14,NW,318,8.7,12.7,31,0.00,CLR,,0.00,WeatherDisplay:10.37,2013-03-14 02:51:00,
2013-03-13 22:52:00,31.9,4.6,30.14,NW,308,8.2,12.7,31,0.00,CLR,,0.00,WeatherDisplay:10.37,2013-03-14 02:52:00,
2013-03-13 22:54:00,31.9,3.9,30.14,NW,312,8.5,11.5,30,0.00,CLR,,0.00,WeatherDisplay:10.37,2013-03-14 02:54:00,
2013-03-13 22:57:00,32.3,4.3,30.14,NNW,335,8.3,15.5,30,0.00,CLR,,0.00,WeatherDisplay:10.37,2013-03-14 02:57:00,
2013-03-13 23:00:00,32.3,3.5,30.14,NW,305,9.4,15.0,29,0.00,CLR,,0.00,WeatherDisplay:10.37,2013-03-14 03:00:00,
2013-03-13 23:02:00,32.3,3.5,30.14,WNW,289,13.5,19.6,29,0.00,CLR,,0.00,WeatherDisplay:10.37,2013-03-14 03:02:00,
2013-03-13 23:03:00,32.3,3.5,30.14,North,10,13.9,19.6,29,0.00,CLR,,0.00,WeatherDisplay:10.37,2013-03-14 03:03:00,
2013-03-13 23:05:00,32.3,4.3,30.14,NW,312,9.8,16.1,30,0.00,CLR,,0.00,WeatherDisplay:10.37,2013-03-14 03:05:00,
2013-03-13 23:07:00,32.3,4.3,30.14,WNW,302,11.1,20.7,30,0.00,CLR,,0.00,WeatherDisplay:10.37,2013-03-14 03:07:00,
2013-03-13 23:08:00,32.3,4.3,30.14,WNW,294,12.0,20.7,30,0.00,CLR,,0.00,WeatherDisplay:10.37,2013-03-14 03:08:00,
2013-03-13 23:10:00,32.3,3.5,30.14,NW,316,10.5,19.6,29,0.00,CLR,,0.00,WeatherDisplay:10.37,2013-03-14 03:10:00,
2013-03-13 23:12:00,30.0,1.5,30.14,NNW,336,10.4,15.0,29,0.00,CLR,,0.00,WeatherDisplay:10.37,2013-03-14 03:12:00,
2013-03-13 23:13:00,30.0,1.5,30.14,WNW,298,9.4,15.0,29,0.00,CLR,,0.00,WeatherDisplay:10.37,2013-03-14 03:13:00,
2013-03-13 23:15:00,30.0,2.3,30.14,NW,311,8.5,16.1,30,0.00,CLR,,0.00,WeatherDisplay:10.37,2013-03-14 03:15:00,
2013-03-13 23:17:00,29.7,1.3,30.14,NNW,336,9.6,16.1,29,0.00,CLR,,0.00,WeatherDisplay:10.37,2013-03-14 03:17:00,
2013-03-13 23:18:00,29.7,1.3,30.14,NNW,336,9.6,16.1,29,0.00,CLR,,0.00,WeatherDisplay:10.37,2013-03-14 03:18:00,
2013-03-13 23:20:00,29.7,-1.1,30.14,NW,305,12.5,18.4,26,0.00,CLR,,0.00,WeatherDisplay:10.37,2013-03-14 03:20:00,
2013-03-13 23:23:00,29.7,-1.1,30.14,West,280,11.1,19.6,26,0.00,CLR,,0.00,WeatherDisplay:10.37,2013-03-14 03:23:00,
2013-03-13 23:25:00,29.7,-1.1,30.14,NW,312,8.6,17.3,26,0.00,CLR,,0.00,WeatherDisplay:10.37,2013-03-14 03:25:00,
2013-03-13 23:28:00,29.7,-1.1,30.14,WNW,301,10.7,17.3,26,0.00,CLR,,0.00,WeatherDisplay:10.37,2013-03-14 03:28:00,
2013-03-13 23:29:00,31.4,1.2,30.14,West,267,12.0,17.3,27,0.00,CLR,,0.00,WeatherDisplay:10.37,2013-03-14 03:29:00,
2013-03-13 23:30:00,32.0,0.9,30.14,NNW,344,10.3,17.3,26,0.00,CLR,,0.00,WeatherDisplay:10.37,2013-03-14 03:30:00,
2013-03-13 23:33:00,32.3,1.2,30.14,NW,325,7.9,13.8,26,0.00,CLR,,0.00,WeatherDisplay:10.37,2013-03-14 03:33:00,
2013-03-13 23:34:00,29.9,-0.9,30.14,NW,326,9.2,15.0,26,0.00,CLR,,0.00,WeatherDisplay:10.37,2013-03-14 03:34:00,
2013-03-13 23:35:00,29.9,-0.9,30.14,NW,309,7.7,15.0,26,0.00,CLR,,0.00,WeatherDisplay:10.37,2013-03-14 03:35:00,
2013-03-13 23:38:00,28.8,-1.8,30.14,NW,318,6.6,11.5,26,0.00,CLR,,0.00,WeatherDisplay:10.37,2013-03-14 03:38:00,
2013-03-13 23:39:00,28.8,-1.8,30.14,NNW,347,4.8,7.8,26,0.00,CLR,,0.00,WeatherDisplay:10.37,2013-03-14 03:39:00,
2013-03-13 23:40:00,30.9,0.8,30.14,NW,312,6.4,9.2,27,0.00,CLR,,0.00,WeatherDisplay:10.37,2013-03-14 03:40:00,
2013-03-13 23:43:00,33.3,2.0,30.14,NNW,342,9.0,15.0,26,0.00,CLR,,0.00,WeatherDisplay:10.37,2013-03-14 03:43:00,
2013-03-13 23:44:00,31.0,0.1,30.14,WNW,296,8.5,11.5,26,0.00,CLR,,0.00,WeatherDisplay:10.37,2013-03-14 03:44:00,
2013-03-13 23:45:00,31.0,0.1,30.14,NW,309,7.5,13.8,26,0.00,CLR,,0.00,WeatherDisplay:10.37,2013-03-14 03:45:00,
2013-03-13 23:46:00,31.0,0.1,30.14,NW,325,8.1,13.8,26,0.00,CLR,,0.00,WeatherDisplay:10.37,2013-03-14 03:46:00,
2013-03-13 23:48:00,32.9,0.9,30.14,WNW,295,7.4,16.1,25,0.00,CLR,,0.00,WeatherDisplay:10.37,2013-03-14 03:48:00,
2013-03-13 23:49:00,30.0,-1.6,30.14,West,260,5.6,10.4,25,0.00,CLR,,0.00,WeatherDisplay:10.37,2013-03-14 03:49:00,
2013-03-13 23:50:00,32.1,0.2,30.14,NW,326,8.9,15.0,25,0.00,CLR,,0.00,WeatherDisplay:10.37,2013-03-14 03:50:00,
2013-03-13 23:51:00,29.9,-2.6,30.13,NW,311,11.7,17.3,24,0.00,CLR,,0.00,WeatherDisplay:10.37,2013-03-14 03:51:00,
2013-03-13 23:53:00,29.9,-0.9,30.14,WNW,291,6.4,15.0,26,0.00,CLR,,0.00,WeatherDisplay:10.37,2013-03-14 03:53:00,
2013-03-13 23:54:00,31.2,-0.6,30.14,West,275,9.0,13.8,25,0.00,CLR,,0.00,WeatherDisplay:10.37,2013-03-14 03:54:00,
2013-03-13 23:55:00,31.2,0.2,30.13,WNW,295,6.7,12.7,26,0.00,CLR,,0.00,WeatherDisplay:10.37,2013-03-14 03:55:00,
2013-03-13 23:57:00,30.2,-1.5,30.14,West,278,9.4,13.8,25,0.00,CLR,,0.00,WeatherDisplay:10.37,2013-03-14 03:57:00,
2013-03-13 23:59:00,30.2,-1.5,30.13,NW,315,5.1,18.4,25,0.00,CLR,,0.00,WeatherDisplay:10.37,2013-03-14 03:59:00,